Observation data for Guadalupe Mtns Park on 02/15/2017      Previous  Date  Next       Current Mesonet Observations  Soil Data  Daily Summary Page  Observations in Plain Language
KGU1 150600Z 02003KT M01/M04 A3024 RMK A01 T10141035  RH  086%=      5-min Rain = 0
KGU1 150601Z 02003KT M01/M04 A3024 RMK A01 T10141035  RH  086%=      5-min Rain = 0
KGU1 150602Z 02003KT M01/M04 A3024 RMK A01 T10131035  RH  086%=      5-min Rain = 0
KGU1 150603Z 02003KT M01/M04 A3024 RMK A01 T10141035  RH  086%=      5-min Rain = 0
KGU1 150604Z 03003KT M01/M04 A3024 RMK A01 T10131035  RH  086%=      5-min Rain = 0
KGU1 150605Z 03003KT M01/M04 A3024 RMK A01 T10131035  RH  086%=      5-min Rain = 0
KGU1 150606Z 04003KT M01/M03 A3024 RMK A01 T10131034  RH  086%=      5-min Rain = 0
KGU1 150607Z 03003KT M01/M04 A3024 RMK A01 T10131035  RH  086%=      5-min Rain = 0
KGU1 150608Z 01003KT M01/M04 A3024 RMK A01 T10131035  RH  086%=      5-min Rain = 0
KGU1 150609Z 01003KT M01/M04 A3024 RMK A01 T10141036  RH  086%=      5-min Rain = 0
KGU1 150610Z 01003KT M01/M04 A3024 RMK A01 T10141037  RH  086%=      5-min Rain = 0
KGU1 150611Z 02002KT M01/M04 A3024 RMK A01 T10141035  RH  087%=      5-min Rain = 0
KGU1 150612Z 02002KT M01/M04 A3023 RMK A01 T10141035  RH  087%=      5-min Rain = 0
KGU1 150613Z 03002KT M01/M04 A3023 RMK A01 T10141035  RH  087%=      5-min Rain = 0
KGU1 150614Z 04002KT M01/M04 A3023 RMK A01 T10141035  RH  086%=      5-min Rain = 0
KGU1 150615Z 03002KT M01/M04 A3023 RMK A01 T10141035  RH  086%=      5-min Rain = 0
KGU1 150616Z 02002KT M01/M04 A3024 RMK A01 T10141035  RH  086%=      5-min Rain = 0
KGU1 150617Z 02001KT M01/M04 A3024 RMK A01 T10141036  RH  086%=      5-min Rain = 0
KGU1 150618Z 04001KT M01/M04 A3024 RMK A01 T10141036  RH  086%=      5-min Rain = 0
KGU1 150619Z 04001KT M02/M04 A3024 RMK A01 T10151036  RH  086%=      5-min Rain = 0
KGU1 150620Z 02001KT M02/M04 A3024 RMK A01 T10151036  RH  087%=      5-min Rain = 0
KGU1 150621Z 02001KT M02/M04 A3024 RMK A01 T10151036  RH  087%=      5-min Rain = 0
KGU1 150622Z 03001KT M01/M04 A3024 RMK A01 T10141035  RH  087%=      5-min Rain = 0
KGU1 150623Z 01001KT M01/M04 A3023 RMK A01 T10141035  RH  087%=      5-min Rain = 0
KGU1 150624Z 00001KT M01/M04 A3024 RMK A01 T10141036  RH  086%=      5-min Rain = 0
KGU1 150625Z 01001KT M01/M04 A3024 RMK A01 T10141035  RH  086%=      5-min Rain = 0
KGU1 150626Z 01001KT M01/M04 A3024 RMK A01 T10141035  RH  086%=      5-min Rain = 0
KGU1 150627Z 02001KT M01/M04 A3023 RMK A01 T10141036  RH  086%=      5-min Rain = 0
KGU1 150628Z 04000KT M02/M04 A3023 RMK A01 T10151037  RH  086%=      5-min Rain = 0
KGU1 150629Z 00000KT M02/M04 A3023 RMK A01 T10151037  RH  086%=      5-min Rain = 0
KGU1 150630Z 00000KT M02/M04 A3023 RMK A01 T10151037  RH  086%=      5-min Rain = 0
KGU1 150631Z 00000KT M02/M04 A3024 RMK A01 T10151037  RH  086%=      5-min Rain = 0
KGU1 150632Z 00000KT M02/M04 A3024 RMK A01 T10161038  RH  086%=      5-min Rain = 0
KGU1 150633Z 00000KT M02/M04 A3024 RMK A01 T10161037  RH  086%=      5-min Rain = 0
KGU1 150634Z 00000KT M02/M04 A3024 RMK A01 T10161037  RH  086%=      5-min Rain = 0
KGU1 150635Z 00000KT M02/M04 A3024 RMK A01 T10161038  RH  086%=      5-min Rain = 0
KGU1 150636Z 00000KT M02/M04 A3024 RMK A01 T10161037  RH  086%=      5-min Rain = 0
KGU1 150637Z 00000KT M02/M04 A3024 RMK A01 T10161037  RH  087%=      5-min Rain = 0
KGU1 150638Z 00000KT M02/M04 A3024 RMK A01 T10161037  RH  087%=      5-min Rain = 0
KGU1 150639Z 08000KT M02/M04 A3023 RMK A01 T10161036  RH  087%=      5-min Rain = 0
KGU1 150640Z 00000KT M02/M04 A3024 RMK A01 T10151036  RH  087%=      5-min Rain = 0
KGU1 150641Z 00000KT M02/M04 A3024 RMK A01 T10151036  RH  086%=      5-min Rain = 0
KGU1 150642Z 00000KT M02/M04 A3024 RMK A01 T10161039  RH  085%=      5-min Rain = 0
KGU1 150643Z 00000KT M02/M04 A3024 RMK A01 T10161038  RH  086%=      5-min Rain = 0
KGU1 150644Z 00000KT M02/M04 A3024 RMK A01 T10161036  RH  087%=      5-min Rain = 0
KGU1 150645Z 00000KT M02/M04 A3024 RMK A01 T10151036  RH  087%=      5-min Rain = 0
KGU1 150646Z 00000KT M01/M04 A3024 RMK A01 T10141035  RH  086%=      5-min Rain = 0
KGU1 150647Z 20001KT M01/M04 A3024 RMK A01 T10141036  RH  086%=      5-min Rain = 0
KGU1 150648Z 20002KT M01/M04 A3024 RMK A01 T10141037  RH  085%=      5-min Rain = 0
KGU1 150649Z 18002KT M02/M04 A3024 RMK A01 T10151037  RH  086%=      5-min Rain = 0
KGU1 150650Z 17002KT M02/M04 A3024 RMK A01 T10151036  RH  086%=      5-min Rain = 0
KGU1 150651Z 18002KT M01/M04 A3024 RMK A01 T10141036  RH  086%=      5-min Rain = 0
KGU1 150652Z 18002KT M01/M04 A3024 RMK A01 T10141036  RH  086%=      5-min Rain = 0
KGU1 150653Z 19002KT M01/M04 A3024 RMK A01 T10141035  RH  086%=      5-min Rain = 0
KGU1 150654Z 21002KT M01/M04 A3024 RMK A01 T10141035  RH  086%=      5-min Rain = 0
KGU1 150655Z 21002KT M01/M04 A3023 RMK A01 T10131035  RH  086%=      5-min Rain = 0
KGU1 150656Z 19003KT M01/M04 A3023 RMK A01 T10131035  RH  086%=      5-min Rain = 0
KGU1 150657Z 19003KT M01/M04 A3023 RMK A01 T10131035  RH  086%=      5-min Rain = 0
KGU1 150658Z 18002KT M01/M04 A3024 RMK A01 T10131035  RH  086%=      5-min Rain = 0
KGU1 150659Z 21002KT M01/M04 A3024 RMK A01 T10131035  RH  086%=      5-min Rain = 0
KGU1 150700Z 21002KT M01/M03 A3024 RMK A01 T10131034  RH  087%=      5-min Rain = 0
KGU1 150701Z 20002KT M01/M03 A3024 RMK A01 T10131034  RH  087%=      5-min Rain = 0
KGU1 150702Z 19002KT M01/M03 A3024 RMK A01 T10131034  RH  086%=      5-min Rain = 0
KGU1 150703Z 19001KT M01/M04 A3024 RMK A01 T10131035  RH  086%=      5-min Rain = 0
KGU1 150704Z 17001KT M01/M03 A3024 RMK A01 T10131034  RH  086%=      5-min Rain = 0
KGU1 150705Z 17000KT M01/M04 A3024 RMK A01 T10131035  RH  086%=      5-min Rain = 0
KGU1 150706Z 00000KT M01/M04 A3024 RMK A01 T10121035  RH  086%=      5-min Rain = 0
KGU1 150707Z 00000KT M01/M04 A3024 RMK A01 T10121035  RH  085%=      5-min Rain = 0
KGU1 150708Z 00000KT M01/M04 A3024 RMK A01 T10121035  RH  085%=      5-min Rain = 0
KGU1 150709Z 00000KT M01/M04 A3024 RMK A01 T10121036  RH  085%=      5-min Rain = 0
KGU1 150710Z 00000KT M01/M04 A3024 RMK A01 T10111036  RH  084%=      5-min Rain = 0
KGU1 150711Z 00000KT M01/M04 A3024 RMK A01 T10101038  RH  082%=      5-min Rain = 0
KGU1 150712Z 00000KT M01/M04 A3024 RMK A01 T10091039  RH  081%=      5-min Rain = 0
KGU1 150713Z 24000KT M01/M04 A3024 RMK A01 T10091039  RH  081%=      5-min Rain = 0
KGU1 150714Z 00000KT M01/M04 A3024 RMK A01 T10091040  RH  080%=      5-min Rain = 0
KGU1 150715Z 00000KT M01/M04 A3024 RMK A01 T10091040  RH  080%=      5-min Rain = 0
KGU1 150716Z 00000KT M01/M04 A3024 RMK A01 T10081041  RH  079%=      5-min Rain = 0
KGU1 150717Z 00000KT M01/M04 A3024 RMK A01 T10071042  RH  078%=      5-min Rain = 0
KGU1 150718Z 00000KT M01/M04 A3024 RMK A01 T10071043  RH  077%=      5-min Rain = 0
KGU1 150719Z 00000KT M01/M05 A3024 RMK A01 T10061045  RH  076%=      5-min Rain = 0
KGU1 150720Z 11000KT M01/M05 A3024 RMK A01 T10051045  RH  075%=      5-min Rain = 0
KGU1 150721Z 00000KT M00/M05 A3024 RMK A01 T10041046  RH  074%=      5-min Rain = 0
KGU1 150722Z 00000KT M00/M05 A3024 RMK A01 T10041047  RH  074%=      5-min Rain = 0
KGU1 150723Z 00000KT M00/M05 A3024 RMK A01 T10041047  RH  073%=      5-min Rain = 0
KGU1 150724Z 00000KT M00/M05 A3024 RMK A01 T10031048  RH  073%=      5-min Rain = 0
KGU1 150725Z 00000KT M00/M05 A3024 RMK A01 T10011048  RH  072%=      5-min Rain = 0
KGU1 150726Z 00000KT M00/M05 A3024 RMK A01 T10011048  RH  071%=      5-min Rain = 0
KGU1 150727Z 00000KT 00/05 A3024 RMK A01 T00000-48  RH  071%=      5-min Rain = 0
KGU1 150728Z 00000KT 00/M05 A3024 RMK A01 T00011048  RH  070%=      5-min Rain = 0
KGU1 150729Z 03000KT 00/M05 A3024 RMK A01 T00011049  RH  070%=      5-min Rain = 0
KGU1 150730Z 03001KT 00/M05 A3024 RMK A01 T00011049  RH  070%=      5-min Rain = 0
KGU1 150731Z 03000KT 00/M05 A3024 RMK A01 T00021049  RH  069%=      5-min Rain = 0
KGU1 150732Z 00000KT 00/M05 A3024 RMK A01 T00021049  RH  069%=      5-min Rain = 0
KGU1 150733Z 03000KT 00/M05 A3024 RMK A01 T00011049  RH  069%=      5-min Rain = 0
KGU1 150734Z 33001KT 00/M05 A3024 RMK A01 T00011050  RH  069%=      5-min Rain = 0
KGU1 150735Z 33000KT M00/M05 A3024 RMK A01 T10011051  RH  070%=      5-min Rain = 0
KGU1 150736Z 35001KT M00/M05 A3024 RMK A01 T10011051  RH  070%=      5-min Rain = 0
KGU1 150737Z 01001KT M00/M05 A3024 RMK A01 T10011051  RH  069%=      5-min Rain = 0
KGU1 150738Z 00002KT M00/M05 A3024 RMK A01 T10011052  RH  069%=      5-min Rain = 0
KGU1 150739Z 33002KT M00/M05 A3024 RMK A01 T10011052  RH  069%=      5-min Rain = 0
KGU1 150740Z 34002KT M00/M05 A3024 RMK A01 T10011052  RH  069%=      5-min Rain = 0
KGU1 150741Z 00002KT M00/M05 A3024 RMK A01 T10011054  RH  069%=      5-min Rain = 0
KGU1 150742Z 02003KT M00/M05 A3024 RMK A01 T10011054  RH  068%=      5-min Rain = 0
KGU1 150743Z 01004KT M00/M06 A3024 RMK A01 T10011057  RH  067%=      5-min Rain = 0
KGU1 150744Z 02004KT 00/M06 A3024 RMK A01 T00011060  RH  064%=      5-min Rain = 0
KGU1 150745Z 03003KT 00/M06 A3024 RMK A01 T00011056  RH  066%=      5-min Rain = 0
KGU1 150746Z 03003KT 00/06 A3024 RMK A01 T00000-57  RH  066%=      5-min Rain = 0
KGU1 150747Z 01002KT 00/06 A3024 RMK A01 T00-00-57  RH  066%=      5-min Rain = 0
KGU1 150748Z 02003KT 00/06 A3024 RMK A01 T00-00-60  RH  065%=      5-min Rain = 0
KGU1 150749Z 02002KT 00/06 A3024 RMK A01 T00000-59  RH  065%=      5-min Rain = 0
KGU1 150750Z 02003KT 00/M06 A3024 RMK A01 T00011061  RH  064%=      5-min Rain = 0
KGU1 150751Z 36002KT 00/M06 A3024 RMK A01 T00021061  RH  064%=      5-min Rain = 0
KGU1 150752Z 02003KT 00/M06 A3024 RMK A01 T00011060  RH  064%=      5-min Rain = 0
KGU1 150753Z 02003KT 00/06 A3024 RMK A01 T00000-60  RH  065%=      5-min Rain = 0
KGU1 150754Z 36002KT 00/06 A3024 RMK A01 T00-00-60  RH  065%=      5-min Rain = 0
KGU1 150755Z 02002KT M00/M06 A3024 RMK A01 T10011061  RH  065%=      5-min Rain = 0
KGU1 150756Z 02003KT M00/M06 A3024 RMK A01 T10011062  RH  064%=      5-min Rain = 0
KGU1 150757Z 00002KT M00/M06 A3024 RMK A01 T10011063  RH  064%=      5-min Rain = 0
KGU1 150758Z 36002KT M00/M06 A3024 RMK A01 T10011063  RH  064%=      5-min Rain = 0
KGU1 150759Z 01003KT M00/M06 A3024 RMK A01 T10011063  RH  064%=      5-min Rain = 0
KGU1 150800Z 03004KT M00/M06 A3024 RMK A01 T10011064  RH  063%=      5-min Rain = 0
KGU1 150801Z 05003KT M00/M06 A3024 RMK A01 T10011064  RH  064%=      5-min Rain = 0
KGU1 150802Z 03002KT M00/M06 A3024 RMK A01 T10021064  RH  064%=      5-min Rain = 0
KGU1 150803Z 02002KT M00/M07 A3024 RMK A01 T10021065  RH  063%=      5-min Rain = 0
KGU1 150804Z 02002KT M00/M07 A3024 RMK A01 T10011065  RH  063%=      5-min Rain = 0
KGU1 150805Z 02003KT M00/M06 A3024 RMK A01 T10011064  RH  063%=      5-min Rain = 0
KGU1 150806Z 02002KT M00/M07 A3024 RMK A01 T10011065  RH  063%=      5-min Rain = 0
KGU1 150807Z 04003KT M00/M07 A3024 RMK A01 T10011065  RH  063%=      5-min Rain = 0
KGU1 150808Z 04003KT M00/M07 A3024 RMK A01 T10011066  RH  062%=      5-min Rain = 0
KGU1 150809Z 02002KT M00/M07 A3024 RMK A01 T10011066  RH  062%=      5-min Rain = 0
KGU1 150810Z 00002KT M00/M07 A3024 RMK A01 T10011065  RH  062%=      5-min Rain = 0
KGU1 150811Z 00002KT M00/M06 A3024 RMK A01 T10011064  RH  063%=      5-min Rain = 0
KGU1 150812Z 02003KT M00/M06 A3024 RMK A01 T10011064  RH  063%=      5-min Rain = 0
KGU1 150813Z 01003KT M00/M07 A3024 RMK A01 T10011065  RH  063%=      5-min Rain = 0
KGU1 150814Z 02003KT M00/M07 A3024 RMK A01 T10011066  RH  062%=      5-min Rain = 0
KGU1 150815Z 03003KT 00/07 A3024 RMK A01 T00-00-67  RH  062%=      5-min Rain = 0
KGU1 150816Z 02003KT 00/07 A3024 RMK A01 T00000-68  RH  061%=      5-min Rain = 0
KGU1 150817Z 36003KT 00/M07 A3024 RMK A01 T00011067  RH  061%=      5-min Rain = 0
KGU1 150818Z 01003KT 00/M07 A3024 RMK A01 T00011068  RH  061%=      5-min Rain = 0
KGU1 150819Z 01003KT 00/M07 A3024 RMK A01 T00011068  RH  060%=      5-min Rain = 0
KGU1 150820Z 02004KT 00/M07 A3024 RMK A01 T00021069  RH  059%=      5-min Rain = 0
KGU1 150821Z 01004KT 00/M07 A3024 RMK A01 T00031068  RH  060%=      5-min Rain = 0
KGU1 150822Z 03004KT 00/M07 A3024 RMK A01 T00021067  RH  060%=      5-min Rain = 0
KGU1 150823Z 01003KT 00/M07 A3024 RMK A01 T00011067  RH  061%=      5-min Rain = 0
KGU1 150824Z 02004KT 00/M07 A3024 RMK A01 T00011068  RH  060%=      5-min Rain = 0
KGU1 150825Z 03005KT 00/M07 A3024 RMK A01 T00021068  RH  060%=      5-min Rain = 0
KGU1 150826Z 02005KT 00/M07 A3024 RMK A01 T00021068  RH  060%=      5-min Rain = 0
KGU1 150827Z 02004KT 00/M07 A3024 RMK A01 T00021069  RH  060%=      5-min Rain = 0
KGU1 150828Z 02004KT 00/M07 A3024 RMK A01 T00021068  RH  060%=      5-min Rain = 0
KGU1 150829Z 01005KT 00/M07 A3024 RMK A01 T00011068  RH  060%=      5-min Rain = 0
KGU1 150830Z 01005KT 00/M07 A3024 RMK A01 T00011068  RH  060%=      5-min Rain = 0
KGU1 150831Z 02005KT 00/M07 A3024 RMK A01 T00011069  RH  060%=      5-min Rain = 0
KGU1 150832Z 01004KT 00/M07 A3024 RMK A01 T00021069  RH  060%=      5-min Rain = 0
KGU1 150833Z 03005KT 00/M07 A3024 RMK A01 T00031070  RH  059%=      5-min Rain = 0
KGU1 150834Z 03004KT 00/M07 A3024 RMK A01 T00031069  RH  059%=      5-min Rain = 0
KGU1 150835Z 04004KT 00/M07 A3025 RMK A01 T00031067  RH  060%=      5-min Rain = 0
KGU1 150836Z 02004KT 00/M07 A3025 RMK A01 T00021067  RH  061%=      5-min Rain = 0
KGU1 150837Z 02004KT 00/M07 A3025 RMK A01 T00011067  RH  061%=      5-min Rain = 0
KGU1 150838Z 02005KT 00/M07 A3025 RMK A01 T00011069  RH  060%=      5-min Rain = 0
KGU1 150839Z 02006KT 00/M07 A3025 RMK A01 T00021069  RH  060%=      5-min Rain = 0
KGU1 150840Z 02005KT 00/M07 A3024 RMK A01 T00021068  RH  060%=      5-min Rain = 0
KGU1 150841Z 02006KT 00/M07 A3025 RMK A01 T00021069  RH  059%=      5-min Rain = 0
KGU1 150842Z 02005KT 00/M07 A3025 RMK A01 T00031068  RH  060%=      5-min Rain = 0
KGU1 150843Z 02005KT 00/M07 A3025 RMK A01 T00021068  RH  060%=      5-min Rain = 0
KGU1 150844Z 01005KT 00/M07 A3025 RMK A01 T00021068  RH  060%=      5-min Rain = 0
KGU1 150845Z 03005KT 00/M07 A3025 RMK A01 T00031069  RH  059%=      5-min Rain = 0
KGU1 150846Z 02004KT 00/M07 A3025 RMK A01 T00031068  RH  060%=      5-min Rain = 0
KGU1 150847Z 02005KT 00/M07 A3025 RMK A01 T00021068  RH  060%=      5-min Rain = 0
KGU1 150848Z 02005KT 00/M07 A3025 RMK A01 T00021067  RH  061%=      5-min Rain = 0
KGU1 150849Z 03006KT 00/M07 A3024 RMK A01 T00021068  RH  060%=      5-min Rain = 0
KGU1 150850Z 02007KT 00/M07 A3024 RMK A01 T00031070  RH  059%=      5-min Rain = 0
KGU1 150851Z 03005KT 00/M07 A3024 RMK A01 T00031068  RH  060%=      5-min Rain = 0
KGU1 150852Z 03009KT 00/M07 A3024 RMK A01 T00031070  RH  059%=      5-min Rain = 0
KGU1 150853Z 03009KT 01/M07 A3024 RMK A01 T00051070  RH  058%=      5-min Rain = 0
KGU1 150854Z 02007KT 01/M07 A3024 RMK A01 T00061069  RH  058%=      5-min Rain = 0
KGU1 150855Z 02006KT 01/M07 A3024 RMK A01 T00051068  RH  059%=      5-min Rain = 0
KGU1 150856Z 03006KT 01/M07 A3024 RMK A01 T00051069  RH  058%=      5-min Rain = 0
KGU1 150857Z 02005KT 01/M07 A3024 RMK A01 T00051069  RH  059%=      5-min Rain = 0
KGU1 150858Z 03005KT 00/M07 A3024 RMK A01 T00041069  RH  059%=      5-min Rain = 0
KGU1 150859Z 02005KT 00/M07 A3024 RMK A01 T00041068  RH  059%=      5-min Rain = 0
KGU1 150900Z 02006KT 00/M07 A3024 RMK A01 T00031069  RH  059%=      5-min Rain = 0
KGU1 150901Z 01006KT 00/M07 A3024 RMK A01 T00031069  RH  059%=      5-min Rain = 0
KGU1 150902Z 02005KT 00/M07 A3024 RMK A01 T00021069  RH  060%=      5-min Rain = 0
KGU1 150903Z 03005KT 00/M07 A3024 RMK A01 T00021070  RH  059%=      5-min Rain = 0
KGU1 150904Z 02006KT 00/M07 A3024 RMK A01 T00021070  RH  059%=      5-min Rain = 0
KGU1 150905Z 02006KT 00/M07 A3024 RMK A01 T00021070  RH  059%=      5-min Rain = 0
KGU1 150906Z 02006KT 00/M07 A3024 RMK A01 T00031070  RH  059%=      5-min Rain = 0
KGU1 150907Z 01005KT 00/M07 A3024 RMK A01 T00031070  RH  059%=      5-min Rain = 0
KGU1 150908Z 01004KT 00/M07 A3024 RMK A01 T00021071  RH  059%=      5-min Rain = 0
KGU1 150909Z 01005KT 00/M07 A3025 RMK A01 T00021071  RH  059%=      5-min Rain = 0
KGU1 150910Z 01005KT 00/M07 A3024 RMK A01 T00021071  RH  059%=      5-min Rain = 0
KGU1 150911Z 01005KT 00/M07 A3024 RMK A01 T00011071  RH  059%=      5-min Rain = 0
KGU1 150912Z 02007KT 00/M07 A3025 RMK A01 T00021072  RH  058%=      5-min Rain = 0
KGU1 150913Z 02007KT 00/M07 A3024 RMK A01 T00021072  RH  058%=      5-min Rain = 0
KGU1 150914Z 03008KT 00/M07 A3024 RMK A01 T00041072  RH  058%=      5-min Rain = 0
KGU1 150915Z 03007KT 00/M07 A3024 RMK A01 T00041071  RH  058%=      5-min Rain = 0
KGU1 150916Z 03007KT 01/M07 A3024 RMK A01 T00051072  RH  057%=      5-min Rain = 0
KGU1 150917Z 02006KT 01/M07 A3024 RMK A01 T00051071  RH  058%=      5-min Rain = 0
KGU1 150918Z 01006KT 00/M07 A3024 RMK A01 T00041070  RH  058%=      5-min Rain = 0
KGU1 150919Z 01005KT 00/M07 A3024 RMK A01 T00031070  RH  058%=      5-min Rain = 0
KGU1 150920Z 02005KT 00/M07 A3024 RMK A01 T00031071  RH  058%=      5-min Rain = 0
KGU1 150921Z 03006KT 00/M07 A3025 RMK A01 T00031073  RH  057%=      5-min Rain = 0
KGU1 150922Z 02005KT 00/M07 A3025 RMK A01 T00041072  RH  057%=      5-min Rain = 0
KGU1 150923Z 02004KT 00/M07 A3025 RMK A01 T00041072  RH  057%=      5-min Rain = 0
KGU1 150924Z 02004KT 00/M07 A3025 RMK A01 T00041073  RH  057%=      5-min Rain = 0
KGU1 150925Z 03003KT 00/M07 A3025 RMK A01 T00041073  RH  057%=      5-min Rain = 0
KGU1 150926Z 02003KT 00/M07 A3025 RMK A01 T00041074  RH  057%=      5-min Rain = 0
KGU1 150927Z 03004KT 00/M07 A3025 RMK A01 T00031073  RH  057%=      5-min Rain = 0
KGU1 150928Z 03003KT 00/M07 A3025 RMK A01 T00031073  RH  057%=      5-min Rain = 0
KGU1 150929Z 01003KT 00/M07 A3025 RMK A01 T00021073  RH  058%=      5-min Rain = 0
KGU1 150930Z 02003KT 00/M08 A3025 RMK A01 T00031075  RH  057%=      5-min Rain = 0
KGU1 150931Z 02003KT 00/M07 A3025 RMK A01 T00031074  RH  057%=      5-min Rain = 0
KGU1 150932Z 02003KT 00/M08 A3025 RMK A01 T00031075  RH  057%=      5-min Rain = 0
KGU1 150933Z 02003KT 00/M07 A3025 RMK A01 T00021074  RH  057%=      5-min Rain = 0
KGU1 150934Z 02003KT 00/M08 A3025 RMK A01 T00021075  RH  057%=      5-min Rain = 0
KGU1 150935Z 03003KT 00/M08 A3025 RMK A01 T00031075  RH  057%=      5-min Rain = 0
KGU1 150936Z 01003KT 00/M08 A3025 RMK A01 T00031075  RH  057%=      5-min Rain = 0
KGU1 150937Z 02003KT 00/M08 A3025 RMK A01 T00021075  RH  057%=      5-min Rain = 0
KGU1 150938Z 02004KT 00/M08 A3025 RMK A01 T00021075  RH  057%=      5-min Rain = 0
KGU1 150939Z 02003KT 00/M08 A3025 RMK A01 T00021075  RH  057%=      5-min Rain = 0
KGU1 150940Z 01004KT 00/M08 A3025 RMK A01 T00031075  RH  057%=      5-min Rain = 0
KGU1 150941Z 01003KT 00/M08 A3025 RMK A01 T00021075  RH  057%=      5-min Rain = 0
KGU1 150942Z 01004KT 00/M08 A3025 RMK A01 T00021075  RH  057%=      5-min Rain = 0
KGU1 150943Z 02004KT 00/M08 A3025 RMK A01 T00011075  RH  057%=      5-min Rain = 0
KGU1 150944Z 01005KT 00/M08 A3025 RMK A01 T00011075  RH  057%=      5-min Rain = 0
KGU1 150945Z 03006KT 00/M08 A3025 RMK A01 T00021076  RH  057%=      5-min Rain = 0
KGU1 150946Z 03005KT 00/M08 A3025 RMK A01 T00031075  RH  057%=      5-min Rain = 0
KGU1 150947Z 03006KT 00/M08 A3025 RMK A01 T00041076  RH  056%=      5-min Rain = 0
KGU1 150948Z 03005KT 00/M08 A3025 RMK A01 T00041075  RH  056%=      5-min Rain = 0
KGU1 150949Z 04004KT 00/M07 A3025 RMK A01 T00041074  RH  056%=      5-min Rain = 0
KGU1 150950Z 04005KT 00/M08 A3025 RMK A01 T00041075  RH  056%=      5-min Rain = 0
KGU1 150951Z 04004KT 00/M08 A3025 RMK A01 T00041075  RH  056%=      5-min Rain = 0
KGU1 150952Z 02004KT 00/M07 A3025 RMK A01 T00031074  RH  057%=      5-min Rain = 0
KGU1 150953Z 02004KT 00/M07 A3025 RMK A01 T00011074  RH  058%=      5-min Rain = 0
KGU1 150954Z 02004KT 00/07 A3025 RMK A01 T00000-74  RH  058%=      5-min Rain = 0
KGU1 150955Z 03004KT M00/M08 A3025 RMK A01 T10011075  RH  058%=      5-min Rain = 0
KGU1 150956Z 01004KT M00/M08 A3025 RMK A01 T10011075  RH  058%=      5-min Rain = 0
KGU1 150957Z 00004KT M00/M08 A3025 RMK A01 T10021075  RH  058%=      5-min Rain = 0
KGU1 150958Z 01004KT M00/M08 A3025 RMK A01 T10021075  RH  059%=      5-min Rain = 0
KGU1 150959Z 01004KT M00/M08 A3025 RMK A01 T10031075  RH  059%=      5-min Rain = 0
KGU1 151000Z 02004KT M00/M08 A3025 RMK A01 T10031075  RH  059%=      5-min Rain = 0
KGU1 151001Z 03004KT M00/M08 A3025 RMK A01 T10031075  RH  059%=      5-min Rain = 0
KGU1 151002Z 02004KT M00/M08 A3025 RMK A01 T10031075  RH  059%=      5-min Rain = 0
KGU1 151003Z 03004KT M00/M08 A3025 RMK A01 T10031075  RH  059%=      5-min Rain = 0
KGU1 151004Z 03004KT M00/M08 A3025 RMK A01 T10031075  RH  059%=      5-min Rain = 0
KGU1 151005Z 03004KT M00/M08 A3025 RMK A01 T10031075  RH  059%=      5-min Rain = 0
KGU1 151006Z 02004KT M00/M08 A3025 RMK A01 T10031075  RH  059%=      5-min Rain = 0
KGU1 151007Z 02004KT M00/M08 A3025 RMK A01 T10031075  RH  059%=      5-min Rain = 0
KGU1 151008Z 02005KT M00/M08 A3025 RMK A01 T10031075  RH  059%=      5-min Rain = 0
KGU1 151009Z 02005KT M00/M08 A3025 RMK A01 T10031076  RH  059%=      5-min Rain = 0
KGU1 151010Z 03005KT M00/M08 A3025 RMK A01 T10021076  RH  058%=      5-min Rain = 0
KGU1 151011Z 03006KT M00/M08 A3025 RMK A01 T10011077  RH  057%=      5-min Rain = 0
KGU1 151012Z 01004KT 00/08 A3025 RMK A01 T00-00-76  RH  057%=      5-min Rain = 0
KGU1 151013Z 02003KT 00/08 A3025 RMK A01 T00-00-75  RH  058%=      5-min Rain = 0
KGU1 151014Z 03004KT M00/M08 A3025 RMK A01 T10011075  RH  058%=      5-min Rain = 0
KGU1 151015Z 02003KT M00/M08 A3025 RMK A01 T10011076  RH  058%=      5-min Rain = 0
KGU1 151016Z 03004KT M00/M08 A3025 RMK A01 T10011075  RH  058%=      5-min Rain = 0
KGU1 151017Z 02004KT M00/M08 A3025 RMK A01 T10011076  RH  058%=      5-min Rain = 0
KGU1 151018Z 03004KT M00/M08 A3025 RMK A01 T10011075  RH  058%=      5-min Rain = 0
KGU1 151019Z 02003KT M00/M08 A3025 RMK A01 T10021076  RH  058%=      5-min Rain = 0
KGU1 151020Z 03004KT M00/M08 A3025 RMK A01 T10021076  RH  058%=      5-min Rain = 0
KGU1 151021Z 03004KT M00/M08 A3025 RMK A01 T10021076  RH  058%=      5-min Rain = 0
KGU1 151022Z 02004KT M00/M08 A3025 RMK A01 T10021075  RH  058%=      5-min Rain = 0
KGU1 151023Z 03005KT M00/M08 A3025 RMK A01 T10021075  RH  058%=      5-min Rain = 0
KGU1 151024Z 03005KT M00/M08 A3025 RMK A01 T10021076  RH  058%=      5-min Rain = 0
KGU1 151025Z 03004KT M00/M08 A3024 RMK A01 T10021075  RH  059%=      5-min Rain = 0
KGU1 151026Z 03004KT M00/M08 A3024 RMK A01 T10031075  RH  059%=      5-min Rain = 0
KGU1 151027Z 02003KT M00/M07 A3024 RMK A01 T10031074  RH  059%=      5-min Rain = 0
KGU1 151028Z 01004KT M00/M07 A3024 RMK A01 T10041074  RH  060%=      5-min Rain = 0
KGU1 151029Z 02005KT M00/M07 A3024 RMK A01 T10041074  RH  060%=      5-min Rain = 0
KGU1 151030Z 02005KT M00/M08 A3024 RMK A01 T10041075  RH  059%=      5-min Rain = 0
KGU1 151031Z 02005KT M00/M08 A3024 RMK A01 T10041075  RH  059%=      5-min Rain = 0
KGU1 151032Z 02005KT M00/M08 A3024 RMK A01 T10041075  RH  059%=      5-min Rain = 0
KGU1 151033Z 03006KT M00/M08 A3024 RMK A01 T10031076  RH  059%=      5-min Rain = 0
KGU1 151034Z 02004KT M00/M08 A3024 RMK A01 T10021075  RH  059%=      5-min Rain = 0
KGU1 151035Z 01004KT M00/M08 A3024 RMK A01 T10031075  RH  059%=      5-min Rain = 0
KGU1 151036Z 02005KT M00/M08 A3024 RMK A01 T10041075  RH  059%=      5-min Rain = 0
KGU1 151037Z 01004KT M00/M08 A3024 RMK A01 T10041075  RH  059%=      5-min Rain = 0
KGU1 151038Z 01005KT M00/M08 A3024 RMK A01 T10041076  RH  059%=      5-min Rain = 0
KGU1 151039Z 01004KT M00/M08 A3024 RMK A01 T10031077  RH  058%=      5-min Rain = 0
KGU1 151040Z 01004KT M00/M08 A3024 RMK A01 T10031076  RH  058%=      5-min Rain = 0
KGU1 151041Z 02004KT M00/M08 A3024 RMK A01 T10031077  RH  058%=      5-min Rain = 0
KGU1 151042Z 02004KT M00/M08 A3024 RMK A01 T10021078  RH  057%=      5-min Rain = 0
KGU1 151043Z 02004KT M00/M08 A3024 RMK A01 T10021077  RH  057%=      5-min Rain = 0
KGU1 151044Z 02004KT M00/M08 A3024 RMK A01 T10021077  RH  058%=      5-min Rain = 0
KGU1 151045Z 01003KT M00/M08 A3024 RMK A01 T10021077  RH  058%=      5-min Rain = 0
KGU1 151046Z 02004KT M00/M08 A3024 RMK A01 T10021078  RH  057%=      5-min Rain = 0
KGU1 151047Z 02003KT M00/M08 A3024 RMK A01 T10011078  RH  057%=      5-min Rain = 0
KGU1 151048Z 03003KT M00/M08 A3024 RMK A01 T10011078  RH  057%=      5-min Rain = 0
KGU1 151049Z 03002KT M00/M08 A3024 RMK A01 T10011077  RH  057%=      5-min Rain = 0
KGU1 151050Z 02003KT M00/M08 A3024 RMK A01 T10011078  RH  057%=      5-min Rain = 0
KGU1 151051Z 02003KT M00/M08 A3024 RMK A01 T10011078  RH  057%=      5-min Rain = 0
KGU1 151052Z 02004KT M00/M08 A3024 RMK A01 T10011078  RH  057%=      5-min Rain = 0
KGU1 151053Z 03004KT M00/M08 A3024 RMK A01 T10011078  RH  057%=      5-min Rain = 0
KGU1 151054Z 03004KT M00/M08 A3024 RMK A01 T10011078  RH  057%=      5-min Rain = 0
KGU1 151055Z 04003KT M00/M08 A3024 RMK A01 T10011078  RH  057%=      5-min Rain = 0
KGU1 151056Z 03004KT M00/M08 A3024 RMK A01 T10011078  RH  057%=      5-min Rain = 0
KGU1 151057Z 03003KT M00/M08 A3024 RMK A01 T10011078  RH  057%=      5-min Rain = 0
KGU1 151058Z 02004KT M00/M08 A3024 RMK A01 T10021078  RH  057%=      5-min Rain = 0
KGU1 151059Z 03004KT M00/M08 A3024 RMK A01 T10021077  RH  058%=      5-min Rain = 0
KGU1 151100Z 03004KT M00/M08 A3024 RMK A01 T10031077  RH  058%=      5-min Rain = 0
KGU1 151101Z 03004KT M00/M08 A3024 RMK A01 T10031078  RH  058%=      5-min Rain = 0
KGU1 151102Z 02004KT M00/M08 A3024 RMK A01 T10031078  RH  058%=      5-min Rain = 0
KGU1 151103Z 03005KT M00/M08 A3024 RMK A01 T10031078  RH  058%=      5-min Rain = 0
KGU1 151104Z 03005KT M00/M08 A3024 RMK A01 T10021077  RH  058%=      5-min Rain = 0
KGU1 151105Z 03004KT M00/M08 A3024 RMK A01 T10031077  RH  058%=      5-min Rain = 0
KGU1 151106Z 02004KT M00/M08 A3024 RMK A01 T10031077  RH  058%=      5-min Rain = 0
KGU1 151107Z 03005KT M00/M08 A3024 RMK A01 T10031077  RH  058%=      5-min Rain = 0
KGU1 151108Z 03005KT M00/M08 A3024 RMK A01 T10031076  RH  058%=      5-min Rain = 0
KGU1 151109Z 03004KT M00/M08 A3024 RMK A01 T10031076  RH  058%=      5-min Rain = 0
KGU1 151110Z 02004KT M00/M08 A3024 RMK A01 T10031075  RH  059%=      5-min Rain = 0
KGU1 151111Z 03005KT M00/M07 A3024 RMK A01 T10041074  RH  060%=      5-min Rain = 0
KGU1 151112Z 03004KT M00/M07 A3024 RMK A01 T10041074  RH  060%=      5-min Rain = 0
KGU1 151113Z 02004KT M00/M07 A3024 RMK A01 T10041074  RH  060%=      5-min Rain = 0
KGU1 151114Z 03004KT M00/M07 A3024 RMK A01 T10041074  RH  060%=      5-min Rain = 0
KGU1 151115Z 03004KT M00/M08 A3024 RMK A01 T10041075  RH  059%=      5-min Rain = 0
KGU1 151116Z 03004KT M00/M08 A3024 RMK A01 T10041075  RH  059%=      5-min Rain = 0
KGU1 151117Z 03005KT M00/M08 A3024 RMK A01 T10031075  RH  059%=      5-min Rain = 0
KGU1 151118Z 03005KT M00/M08 A3024 RMK A01 T10031076  RH  058%=      5-min Rain = 0
KGU1 151119Z 02005KT M00/M08 A3024 RMK A01 T10021075  RH  059%=      5-min Rain = 0
KGU1 151120Z 03006KT M00/M08 A3024 RMK A01 T10011076  RH  058%=      5-min Rain = 0
KGU1 151121Z 04005KT 00/08 A3024 RMK A01 T00-00-75  RH  058%=      5-min Rain = 0
KGU1 151122Z 03006KT 00/08 A3024 RMK A01 T00000-75  RH  058%=      5-min Rain = 0
KGU1 151123Z 03005KT 00/08 A3024 RMK A01 T00000-75  RH  058%=      5-min Rain = 0
KGU1 151124Z 03005KT 00/08 A3024 RMK A01 T00000-75  RH  057%=      5-min Rain = 0
KGU1 151125Z 03004KT 00/M08 A3024 RMK A01 T00011075  RH  057%=      5-min Rain = 0
KGU1 151126Z 03005KT 00/M08 A3024 RMK A01 T00011075  RH  058%=      5-min Rain = 0
KGU1 151127Z 03005KT 00/M08 A3024 RMK A01 T00011075  RH  057%=      5-min Rain = 0
KGU1 151128Z 02005KT 00/08 A3024 RMK A01 T00000-75  RH  058%=      5-min Rain = 0
KGU1 151129Z 03005KT 00/08 A3024 RMK A01 T00000-75  RH  057%=      5-min Rain = 0
KGU1 151130Z 03005KT 00/M08 A3024 RMK A01 T00011075  RH  057%=      5-min Rain = 0
KGU1 151131Z 03005KT 00/M08 A3024 RMK A01 T00011075  RH  058%=      5-min Rain = 0
KGU1 151132Z 02005KT 00/07 A3024 RMK A01 T00000-74  RH  058%=      5-min Rain = 0
KGU1 151133Z 02005KT 00/08 A3024 RMK A01 T00-00-75  RH  058%=      5-min Rain = 0
KGU1 151134Z 02006KT M00/M08 A3024 RMK A01 T10011076  RH  058%=      5-min Rain = 0
KGU1 151135Z 03005KT 00/08 A3024 RMK A01 T00-00-76  RH  057%=      5-min Rain = 0
KGU1 151136Z 03004KT 00/08 A3024 RMK A01 T00000-76  RH  057%=      5-min Rain = 0
KGU1 151137Z 03004KT 00/08 A3024 RMK A01 T00-00-76  RH  057%=      5-min Rain = 0
KGU1 151138Z 03004KT 00/08 A3024 RMK A01 T00-00-76  RH  057%=      5-min Rain = 0
KGU1 151139Z 02004KT 00/08 A3024 RMK A01 T00-00-76  RH  057%=      5-min Rain = 0
KGU1 151140Z 03004KT 00/08 A3024 RMK A01 T00-00-76  RH  057%=      5-min Rain = 0
KGU1 151141Z 02005KT M00/M08 A3024 RMK A01 T10011076  RH  057%=      5-min Rain = 0
KGU1 151142Z 02004KT M00/M08 A3024 RMK A01 T10011076  RH  058%=      5-min Rain = 0
KGU1 151143Z 02004KT M00/M08 A3024 RMK A01 T10011075  RH  058%=      5-min Rain = 0
KGU1 151144Z 04004KT M00/M08 A3024 RMK A01 T10011076  RH  058%=      5-min Rain = 0
KGU1 151145Z 03004KT M00/M08 A3024 RMK A01 T10011076  RH  058%=      5-min Rain = 0
KGU1 151146Z 03004KT M00/M08 A3024 RMK A01 T10011076  RH  058%=      5-min Rain = 0
KGU1 151147Z 02004KT M00/M08 A3024 RMK A01 T10011076  RH  058%=      5-min Rain = 0
KGU1 151148Z 02004KT M00/M08 A3024 RMK A01 T10011076  RH  058%=      5-min Rain = 0
KGU1 151149Z 01004KT M00/M08 A3024 RMK A01 T10021076  RH  058%=      5-min Rain = 0
KGU1 151150Z 02005KT M00/M08 A3024 RMK A01 T10021078  RH  057%=      5-min Rain = 0
KGU1 151151Z 02005KT M00/M08 A3024 RMK A01 T10011078  RH  057%=      5-min Rain = 0
KGU1 151152Z 03005KT M00/M08 A3024 RMK A01 T10011077  RH  057%=      5-min Rain = 0
KGU1 151153Z 03005KT M00/M08 A3024 RMK A01 T10011078  RH  057%=      5-min Rain = 0
KGU1 151154Z 03005KT M00/M08 A3024 RMK A01 T10011077  RH  057%=      5-min Rain = 0
KGU1 151155Z 03005KT M00/M08 A3024 RMK A01 T10011077  RH  057%=      5-min Rain = 0
KGU1 151156Z 04006KT 00/08 A3024 RMK A01 T00-00-77  RH  057%=      5-min Rain = 0
KGU1 151157Z 04005KT 00/08 A3024 RMK A01 T00-00-77  RH  057%=      5-min Rain = 0
KGU1 151158Z 03005KT 00/08 A3024 RMK A01 T00-00-77  RH  057%=      5-min Rain = 0
KGU1 151159Z 02005KT 00/08 A3024 RMK A01 T00-00-77  RH  057%=      5-min Rain = 0
KGU1 151200Z 03006KT 00/08 A3024 RMK A01 T00-00-76  RH  057%=      5-min Rain = 0
KGU1 151201Z 03007KT 00/08 A3024 RMK A01 T00000-76  RH  057%=      5-min Rain = 0
KGU1 151202Z 03006KT 00/M08 A3024 RMK A01 T00011076  RH  057%=      5-min Rain = 0
KGU1 151203Z 03005KT 00/M08 A3024 RMK A01 T00021075  RH  057%=      5-min Rain = 0
KGU1 151204Z 04005KT 00/M08 A3024 RMK A01 T00021075  RH  057%=      5-min Rain = 0
KGU1 151205Z 04006KT 00/M08 A3024 RMK A01 T00021076  RH  057%=      5-min Rain = 0
KGU1 151206Z 03007KT 00/M08 A3024 RMK A01 T00031076  RH  056%=      5-min Rain = 0
KGU1 151207Z 04007KT 00/M08 A3024 RMK A01 T00041077  RH  055%=      5-min Rain = 0
KGU1 151208Z 04006KT 01/M08 A3024 RMK A01 T00051075  RH  056%=      5-min Rain = 0
KGU1 151209Z 03006KT 01/M08 A3024 RMK A01 T00051075  RH  056%=      5-min Rain = 0
KGU1 151210Z 03006KT 01/M08 A3024 RMK A01 T00051075  RH  056%=      5-min Rain = 0
KGU1 151211Z 04006KT 01/M08 A3024 RMK A01 T00051076  RH  055%=      5-min Rain = 0
KGU1 151212Z 04006KT 01/M08 A3024 RMK A01 T00061076  RH  055%=      5-min Rain = 0
KGU1 151213Z 04006KT 01/M08 A3024 RMK A01 T00061075  RH  055%=      5-min Rain = 0
KGU1 151214Z 03006KT 01/M08 A3024 RMK A01 T00061076  RH  055%=      5-min Rain = 0
KGU1 151215Z 03006KT 01/M08 A3024 RMK A01 T00061075  RH  055%=      5-min Rain = 0
KGU1 151216Z 04006KT 01/M08 A3024 RMK A01 T00061076  RH  055%=      5-min Rain = 0
KGU1 151217Z 04006KT 01/M08 A3024 RMK A01 T00051075  RH  056%=      5-min Rain = 0
KGU1 151218Z 04005KT 01/M08 A3024 RMK A01 T00051075  RH  056%=      5-min Rain = 0
KGU1 151219Z 04006KT 01/M08 A3024 RMK A01 T00051076  RH  056%=      5-min Rain = 0
KGU1 151220Z 03006KT 01/M08 A3024 RMK A01 T00051076  RH  056%=      5-min Rain = 0
KGU1 151221Z 03006KT 01/M08 A3024 RMK A01 T00051075  RH  056%=      5-min Rain = 0
KGU1 151222Z 04008KT 01/M08 A3024 RMK A01 T00051076  RH  055%=      5-min Rain = 0
KGU1 151223Z 04008KT 01/M08 A3024 RMK A01 T00061078  RH  054%=      5-min Rain = 0
KGU1 151224Z 03008KT 01/M08 A3024 RMK A01 T00071077  RH  054%=      5-min Rain = 0
KGU1 151225Z 03009KT 01/M08 A3024 RMK A01 T00081079  RH  053%=      5-min Rain = 0
KGU1 151226Z 03011KT 01/M08 A3024 RMK A01 T00111079  RH  052%=      5-min Rain = 0
KGU1 151227Z 03006KT 01/M08 A3024 RMK A01 T00111076  RH  053%=      5-min Rain = 0
KGU1 151228Z 03007KT 01/M08 A3024 RMK A01 T00111077  RH  052%=      5-min Rain = 0
KGU1 151229Z 03010KT 01/M08 A3024 RMK A01 T00111077  RH  052%=      5-min Rain = 0
KGU1 151230Z 04009KT 01/M08 A3024 RMK A01 T00121077  RH  052%=      5-min Rain = 0
KGU1 151231Z 03008KT 01/M08 A3024 RMK A01 T00121076  RH  052%=      5-min Rain = 0
KGU1 151232Z 03008KT 01/M08 A3024 RMK A01 T00121076  RH  052%=      5-min Rain = 0
KGU1 151233Z 03007KT 01/M08 A3024 RMK A01 T00121076  RH  052%=      5-min Rain = 0
KGU1 151234Z 03009KT 01/M08 A3024 RMK A01 T00121077  RH  052%=      5-min Rain = 0
KGU1 151235Z 03009KT 01/M08 A3024 RMK A01 T00131078  RH  051%=      5-min Rain = 0
KGU1 151236Z 02009KT 01/M08 A3024 RMK A01 T00141077  RH  051%=      5-min Rain = 0
KGU1 151237Z 04007KT 01/M08 A3024 RMK A01 T00141077  RH  051%=      5-min Rain = 0
KGU1 151238Z 04006KT 01/M08 A3024 RMK A01 T00141076  RH  052%=      5-min Rain = 0
KGU1 151239Z 04005KT 01/M08 A3024 RMK A01 T00121075  RH  053%=      5-min Rain = 0
KGU1 151240Z 05006KT 01/M08 A3024 RMK A01 T00121076  RH  053%=      5-min Rain = 0
KGU1 151241Z 04005KT 01/M08 A3024 RMK A01 T00111076  RH  053%=      5-min Rain = 0
KGU1 151242Z 03006KT 01/M08 A3024 RMK A01 T00101076  RH  053%=      5-min Rain = 0
KGU1 151243Z 03005KT 01/M08 A3024 RMK A01 T00101076  RH  053%=      5-min Rain = 0
KGU1 151244Z 04007KT 01/M08 A3024 RMK A01 T00091077  RH  053%=      5-min Rain = 0
KGU1 151245Z 04007KT 01/M08 A3024 RMK A01 T00101078  RH  053%=      5-min Rain = 0
KGU1 151246Z 03006KT 01/M08 A3024 RMK A01 T00101077  RH  053%=      5-min Rain = 0
KGU1 151247Z 03007KT 01/M08 A3024 RMK A01 T00101077  RH  053%=      5-min Rain = 0
KGU1 151248Z 03005KT 01/M08 A3024 RMK A01 T00101077  RH  053%=      5-min Rain = 0
KGU1 151249Z 04005KT 01/M08 A3025 RMK A01 T00101076  RH  053%=      5-min Rain = 0
KGU1 151250Z 03005KT 01/M08 A3025 RMK A01 T00091077  RH  053%=      5-min Rain = 0
KGU1 151251Z 03006KT 01/M08 A3025 RMK A01 T00091077  RH  053%=      5-min Rain = 0
KGU1 151252Z 04006KT 01/M08 A3025 RMK A01 T00091077  RH  053%=      5-min Rain = 0
KGU1 151253Z 03007KT 01/M08 A3025 RMK A01 T00091077  RH  053%=      5-min Rain = 0
KGU1 151254Z 03007KT 01/M08 A3025 RMK A01 T00101076  RH  053%=      5-min Rain = 0
KGU1 151255Z 03008KT 01/M08 A3025 RMK A01 T00101077  RH  053%=      5-min Rain = 0
KGU1 151256Z 03008KT 01/M08 A3025 RMK A01 T00101076  RH  053%=      5-min Rain = 0
KGU1 151257Z 03009KT 01/M08 A3025 RMK A01 T00111076  RH  053%=      5-min Rain = 0
KGU1 151258Z 03008KT 01/M08 A3025 RMK A01 T00121075  RH  053%=      5-min Rain = 0
KGU1 151259Z 04007KT 01/M08 A3025 RMK A01 T00121075  RH  053%=      5-min Rain = 0
KGU1 151300Z 04006KT 01/M08 A3025 RMK A01 T00121075  RH  053%=      5-min Rain = 0
KGU1 151301Z 04007KT 01/M08 A3025 RMK A01 T00121075  RH  053%=      5-min Rain = 0
KGU1 151302Z 03007KT 01/M08 A3025 RMK A01 T00101075  RH  053%=      5-min Rain = 0
KGU1 151303Z 03006KT 01/M08 A3025 RMK A01 T00101075  RH  054%=      5-min Rain = 0
KGU1 151304Z 04007KT 01/M08 A3025 RMK A01 T00101075  RH  054%=      5-min Rain = 0
KGU1 151305Z 04008KT 01/M08 A3025 RMK A01 T00101075  RH  054%=      5-min Rain = 0
KGU1 151306Z 04011KT 01/M08 A3025 RMK A01 T00111077  RH  053%=      5-min Rain = 0
KGU1 151307Z 04009KT 01/M08 A3025 RMK A01 T00121076  RH  052%=      5-min Rain = 0
KGU1 151308Z 03009KT 01/M08 A3025 RMK A01 T00131076  RH  052%=      5-min Rain = 0
KGU1 151309Z 03010KT 01/M08 A3025 RMK A01 T00141077  RH  051%=      5-min Rain = 0
KGU1 151310Z 02008KT 02/M08 A3025 RMK A01 T00151076  RH  052%=      5-min Rain = 0
KGU1 151311Z 03010KT 02/M08 A3025 RMK A01 T00151077  RH  051%=      5-min Rain = 0
KGU1 151312Z 04008KT 02/M08 A3025 RMK A01 T00151077  RH  051%=      5-min Rain = 0
KGU1 151313Z 03008KT 02/M08 A3025 RMK A01 T00151076  RH  051%=      5-min Rain = 0
KGU1 151314Z 04008KT 02/M08 A3025 RMK A01 T00151076  RH  051%=      5-min Rain = 0
KGU1 151315Z 03008KT 02/M08 A3025 RMK A01 T00151076  RH  051%=      5-min Rain = 0
KGU1 151316Z 03007KT 01/M08 A3025 RMK A01 T00141076  RH  052%=      5-min Rain = 0
KGU1 151317Z 03009KT 01/M08 A3025 RMK A01 T00141077  RH  051%=      5-min Rain = 0
KGU1 151318Z 03006KT 01/M08 A3025 RMK A01 T00141076  RH  052%=      5-min Rain = 0
KGU1 151319Z 03008KT 01/M08 A3025 RMK A01 T00141077  RH  052%=      5-min Rain = 0
KGU1 151320Z 04008KT 01/M08 A3025 RMK A01 T00141077  RH  051%=      5-min Rain = 0
KGU1 151321Z 04007KT 01/M08 A3025 RMK A01 T00141076  RH  052%=      5-min Rain = 0
KGU1 151322Z 04007KT 01/M08 A3025 RMK A01 T00141076  RH  052%=      5-min Rain = 0
KGU1 151323Z 03008KT 01/M08 A3025 RMK A01 T00141077  RH  051%=      5-min Rain = 0
KGU1 151324Z 03008KT 01/M08 A3025 RMK A01 T00141077  RH  052%=      5-min Rain = 0
KGU1 151325Z 03008KT 01/M08 A3026 RMK A01 T00141076  RH  052%=      5-min Rain = 0
KGU1 151326Z 04006KT 01/M08 A3026 RMK A01 T00141076  RH  052%=      5-min Rain = 0
KGU1 151327Z 03006KT 01/M08 A3026 RMK A01 T00131076  RH  052%=      5-min Rain = 0
KGU1 151328Z 04008KT 01/M08 A3026 RMK A01 T00121076  RH  052%=      5-min Rain = 0
KGU1 151329Z 03009KT 01/M08 A3026 RMK A01 T00121077  RH  052%=      5-min Rain = 0
KGU1 151330Z 03008KT 01/M08 A3026 RMK A01 T00131077  RH  052%=      5-min Rain = 0
KGU1 151331Z 04008KT 01/M08 A3026 RMK A01 T00141076  RH  052%=      5-min Rain = 0
KGU1 151332Z 03007KT 01/M08 A3026 RMK A01 T00141076  RH  052%=      5-min Rain = 0
KGU1 151333Z 04008KT 01/M08 A3026 RMK A01 T00141076  RH  052%=      5-min Rain = 0
KGU1 151334Z 04007KT 01/M08 A3026 RMK A01 T00131076  RH  052%=      5-min Rain = 0
KGU1 151335Z 04006KT 01/M08 A3026 RMK A01 T00131075  RH  053%=      5-min Rain = 0
KGU1 151336Z 03008KT 01/M08 A3026 RMK A01 T00121076  RH  052%=      5-min Rain = 0
KGU1 151337Z 04007KT 01/M08 A3026 RMK A01 T00121076  RH  053%=      5-min Rain = 0
KGU1 151338Z 04007KT 01/M08 A3026 RMK A01 T00121076  RH  053%=      5-min Rain = 0
KGU1 151339Z 03007KT 01/M08 A3026 RMK A01 T00121075  RH  053%=      5-min Rain = 0
KGU1 151340Z 03009KT 01/M08 A3026 RMK A01 T00121076  RH  053%=      5-min Rain = 0
KGU1 151341Z 04009KT 01/M08 A3026 RMK A01 T00121076  RH  052%=      5-min Rain = 0
KGU1 151342Z 04007KT 01/M08 A3026 RMK A01 T00131076  RH  052%=      5-min Rain = 0
KGU1 151343Z 03007KT 01/M08 A3026 RMK A01 T00131075  RH  053%=      5-min Rain = 0
KGU1 151344Z 04007KT 01/M08 A3026 RMK A01 T00121075  RH  053%=      5-min Rain = 0
KGU1 151345Z 03007KT 01/M08 A3026 RMK A01 T00121076  RH  053%=      5-min Rain = 0
KGU1 151346Z 03009G14KT 01/M08 A3026 RMK A01 T00121076  RH  052%=      5-min Rain = 0
KGU1 151347Z 03010KT 01/M08 A3026 RMK A01 T00131076  RH  052%=      5-min Rain = 0
KGU1 151348Z 03010KT 01/M08 A3026 RMK A01 T00141077  RH  051%=      5-min Rain = 0
KGU1 151349Z 03009KT 02/M08 A3026 RMK A01 T00151076  RH  051%=      5-min Rain = 0
KGU1 151350Z 03008KT 02/M08 A3026 RMK A01 T00151077  RH  051%=      5-min Rain = 0
KGU1 151351Z 03007KT 02/M08 A3026 RMK A01 T00151076  RH  051%=      5-min Rain = 0
KGU1 151352Z 03008KT 02/M08 A3026 RMK A01 T00151076  RH  051%=      5-min Rain = 0
KGU1 151353Z 03009KT 02/M08 A3026 RMK A01 T00151077  RH  051%=      5-min Rain = 0
KGU1 151354Z 04006KT 02/M08 A3026 RMK A01 T00151076  RH  051%=      5-min Rain = 0
KGU1 151355Z 04007KT 02/M08 A3026 RMK A01 T00151075  RH  052%=      5-min Rain = 0
KGU1 151356Z 04007KT 02/M08 A3026 RMK A01 T00151075  RH  052%=      5-min Rain = 0
KGU1 151357Z 04007KT 02/M07 A3026 RMK A01 T00151074  RH  052%=      5-min Rain = 0
KGU1 151358Z 03007KT 02/M08 A3026 RMK A01 T00151075  RH  052%=      5-min Rain = 0
KGU1 151359Z 04007KT 02/M07 A3026 RMK A01 T00151074  RH  052%=      5-min Rain = 0
KGU1 151400Z 03008KT 02/M07 A3026 RMK A01 T00151074  RH  052%=      5-min Rain = 0
KGU1 151401Z 03008KT 02/M08 A3026 RMK A01 T00151075  RH  052%=      5-min Rain = 0
KGU1 151402Z 03010KT 02/M08 A3026 RMK A01 T00161076  RH  051%=      5-min Rain = 0
KGU1 151403Z 03009KT 02/M08 A3027 RMK A01 T00161075  RH  051%=      5-min Rain = 0
KGU1 151404Z 04009KT 02/M08 A3026 RMK A01 T00171075  RH  051%=      5-min Rain = 0
KGU1 151405Z 03009KT 02/M08 A3027 RMK A01 T00171075  RH  051%=      5-min Rain = 0
KGU1 151406Z 04007KT 02/M07 A3027 RMK A01 T00171074  RH  051%=      5-min Rain = 0
KGU1 151407Z 03007KT 02/M07 A3027 RMK A01 T00171073  RH  052%=      5-min Rain = 0
KGU1 151408Z 03007KT 02/M07 A3027 RMK A01 T00171074  RH  051%=      5-min Rain = 0
KGU1 151409Z 04007KT 02/M07 A3027 RMK A01 T00181074  RH  051%=      5-min Rain = 0
KGU1 151410Z 04007KT 02/M07 A3027 RMK A01 T00191074  RH  051%=      5-min Rain = 0
KGU1 151411Z 04006KT 02/M07 A3027 RMK A01 T00201073  RH  051%=      5-min Rain = 0
KGU1 151412Z 04008KT 02/M07 A3027 RMK A01 T00201073  RH  051%=      5-min Rain = 0
KGU1 151413Z 04010KT 02/M08 A3027 RMK A01 T00211076  RH  049%=      5-min Rain = 0
KGU1 151414Z 04008KT 02/M08 A3027 RMK A01 T00231075  RH  049%=      5-min Rain = 0
KGU1 151415Z 04009KT 02/M08 A3027 RMK A01 T00231075  RH  049%=      5-min Rain = 0
KGU1 151416Z 03006KT 02/M07 A3027 RMK A01 T00241073  RH  049%=      5-min Rain = 0
KGU1 151417Z 03008KT 03/M07 A3027 RMK A01 T00251074  RH  049%=      5-min Rain = 0
KGU1 151418Z 04010KT 03/M08 A3027 RMK A01 T00261075  RH  048%=      5-min Rain = 0
KGU1 151419Z 04008KT 03/M07 A3027 RMK A01 T00261074  RH  048%=      5-min Rain = 0
KGU1 151420Z 04009KT 03/M08 A3028 RMK A01 T00271075  RH  047%=      5-min Rain = 0
KGU1 151421Z 04009KT 03/M08 A3028 RMK A01 T00281075  RH  047%=      5-min Rain = 0
KGU1 151422Z 04009KT 03/M08 A3028 RMK A01 T00281075  RH  047%=      5-min Rain = 0
KGU1 151423Z 04008KT 03/M07 A3028 RMK A01 T00291073  RH  048%=      5-min Rain = 0
KGU1 151424Z 04008KT 03/M07 A3028 RMK A01 T00291074  RH  047%=      5-min Rain = 0
KGU1 151425Z 04008KT 03/M07 A3028 RMK A01 T00291074  RH  047%=      5-min Rain = 0
KGU1 151426Z 04009KT 03/M07 A3028 RMK A01 T00301074  RH  047%=      5-min Rain = 0
KGU1 151427Z 04009KT 03/M08 A3028 RMK A01 T00301075  RH  047%=      5-min Rain = 0
KGU1 151428Z 04008KT 03/M07 A3028 RMK A01 T00301074  RH  047%=      5-min Rain = 0
KGU1 151429Z 05007KT 03/M07 A3028 RMK A01 T00311072  RH  047%=      5-min Rain = 0
KGU1 151430Z 04009KT 03/M07 A3028 RMK A01 T00311073  RH  047%=      5-min Rain = 0
KGU1 151431Z 03008KT 03/M07 A3028 RMK A01 T00311074  RH  047%=      5-min Rain = 0
KGU1 151432Z 04009KT 03/M07 A3028 RMK A01 T00321073  RH  047%=      5-min Rain = 0
KGU1 151433Z 03010KT 03/M08 A3028 RMK A01 T00321075  RH  046%=      5-min Rain = 0
KGU1 151434Z 04009KT 03/M08 A3028 RMK A01 T00321076  RH  045%=      5-min Rain = 0
KGU1 151435Z 04008KT 03/M07 A3028 RMK A01 T00331074  RH  046%=      5-min Rain = 0
KGU1 151436Z 04008KT 03/M07 A3028 RMK A01 T00331074  RH  046%=      5-min Rain = 0
KGU1 151437Z 04011KT 03/M08 A3028 RMK A01 T00331077  RH  045%=      5-min Rain = 0
KGU1 151438Z 04008KT 03/M07 A3028 RMK A01 T00341074  RH  046%=      5-min Rain = 0
KGU1 151439Z 03008KT 03/M07 A3029 RMK A01 T00341072  RH  046%=      5-min Rain = 0
KGU1 151440Z 04011KT 04/M08 A3029 RMK A01 T00351075  RH  045%=      5-min Rain = 0
KGU1 151441Z 04008KT 04/M08 A3029 RMK A01 T00351076  RH  045%=      5-min Rain = 0
KGU1 151442Z 04008KT 04/M08 A3029 RMK A01 T00351076  RH  045%=      5-min Rain = 0
KGU1 151443Z 03009KT 04/M08 A3029 RMK A01 T00351076  RH  045%=      5-min Rain = 0
KGU1 151444Z 04008KT 04/M07 A3029 RMK A01 T00361074  RH  045%=      5-min Rain = 0
KGU1 151445Z 04007KT 04/M07 A3029 RMK A01 T00361071  RH  046%=      5-min Rain = 0
KGU1 151446Z 05009KT 04/M07 A3029 RMK A01 T00371073  RH  045%=      5-min Rain = 0
KGU1 151447Z 05010KT 04/M07 A3029 RMK A01 T00371074  RH  045%=      5-min Rain = 0
KGU1 151448Z 04009KT 04/M08 A3029 RMK A01 T00371075  RH  044%=      5-min Rain = 0
KGU1 151449Z 05009KT 04/M08 A3029 RMK A01 T00371076  RH  044%=      5-min Rain = 0
KGU1 151450Z 05009KT 04/M08 A3029 RMK A01 T00371075  RH  044%=      5-min Rain = 0
KGU1 151451Z 04009KT 04/M08 A3029 RMK A01 T00371076  RH  044%=      5-min Rain = 0
KGU1 151452Z 05009KT 04/M07 A3029 RMK A01 T00381073  RH  045%=      5-min Rain = 0
KGU1 151453Z 04011KT 04/M08 A3029 RMK A01 T00381077  RH  043%=      5-min Rain = 0
KGU1 151454Z 05011KT 04/M08 A3029 RMK A01 T00381076  RH  044%=      5-min Rain = 0
KGU1 151455Z 04009KT 04/M08 A3029 RMK A01 T00381075  RH  044%=      5-min Rain = 0
KGU1 151456Z 05011KT 04/M08 A3029 RMK A01 T00381075  RH  044%=      5-min Rain = 0
KGU1 151457Z 04011KT 04/M08 A3029 RMK A01 T00381079  RH  043%=      5-min Rain = 0
KGU1 151458Z 03009KT 04/M08 A3029 RMK A01 T00381075  RH  044%=      5-min Rain = 0
KGU1 151459Z 04011KT 04/M08 A3029 RMK A01 T00381076  RH  044%=      5-min Rain = 0
KGU1 151500Z 04010KT 04/M08 A3029 RMK A01 T00381079  RH  043%=      5-min Rain = 0
KGU1 151501Z 04010KT 04/M08 A3029 RMK A01 T00391075  RH  044%=      5-min Rain = 0
KGU1 151502Z 04010KT 04/M08 A3029 RMK A01 T00391076  RH  043%=      5-min Rain = 0
KGU1 151503Z 05013KT 04/M08 A3029 RMK A01 T00391078  RH  043%=      5-min Rain = 0
KGU1 151504Z 04013KT 04/M08 A3029 RMK A01 T00381079  RH  042%=      5-min Rain = 0
KGU1 151505Z 05012KT 04/M08 A3029 RMK A01 T00381078  RH  043%=      5-min Rain = 0
KGU1 151506Z 04012KT 04/M08 A3029 RMK A01 T00381079  RH  043%=      5-min Rain = 0
KGU1 151507Z 04009KT 04/M08 A3029 RMK A01 T00381078  RH  043%=      5-min Rain = 0
KGU1 151508Z 04006KT 04/M07 A3029 RMK A01 T00391073  RH  044%=      5-min Rain = 0
KGU1 151509Z 05011KT 04/M08 A3029 RMK A01 T00401076  RH  043%=      5-min Rain = 0
KGU1 151510Z 05008KT 04/M07 A3029 RMK A01 T00411073  RH  044%=      5-min Rain = 0
KGU1 151511Z 04010KT 04/M08 A3029 RMK A01 T00411076  RH  043%=      5-min Rain = 0
KGU1 151512Z 04008KT 04/M08 A3029 RMK A01 T00411076  RH  042%=      5-min Rain = 0
KGU1 151513Z 03009KT 04/M08 A303 RMK A01 T00411077  RH  042%=      5-min Rain = 0
KGU1 151514Z 04011KT 04/M08 A303 RMK A01 T00421076  RH  042%=      5-min Rain = 0
KGU1 151515Z 03012KT 04/M08 A303 RMK A01 T00411082  RH  041%=      5-min Rain = 0
KGU1 151516Z 04010KT 04/M08 A303 RMK A01 T00401078  RH  042%=      5-min Rain = 0
KGU1 151517Z 04009KT 04/M08 A303 RMK A01 T00411077  RH  043%=      5-min Rain = 0
KGU1 151518Z 05012KT 04/M08 A303 RMK A01 T00411079  RH  042%=      5-min Rain = 0
KGU1 151519Z 04007KT 04/M08 A303 RMK A01 T00411077  RH  042%=      5-min Rain = 0
KGU1 151520Z 05009KT 04/M08 A303 RMK A01 T00421075  RH  043%=      5-min Rain = 0
KGU1 151521Z 05009KT 04/M08 A303 RMK A01 T00431076  RH  042%=      5-min Rain = 0
KGU1 151522Z 04009KT 04/M07 A303 RMK A01 T00441074  RH  043%=      5-min Rain = 0
KGU1 151523Z 03011KT 04/M08 A303 RMK A01 T00441079  RH  041%=      5-min Rain = 0
KGU1 151524Z 04010KT 04/M08 A303 RMK A01 T00431076  RH  042%=      5-min Rain = 0
KGU1 151525Z 04011KT 04/M08 A303 RMK A01 T00441078  RH  041%=      5-min Rain = 0
KGU1 151526Z 04010KT 04/M08 A303 RMK A01 T00441079  RH  041%=      5-min Rain = 0
KGU1 151527Z 03012KT 04/M08 A303 RMK A01 T00431080  RH  041%=      5-min Rain = 0
KGU1 151528Z 03011KT 04/M08 A303 RMK A01 T00421081  RH  041%=      5-min Rain = 0
KGU1 151529Z 03012KT 04/M08 A303 RMK A01 T00421081  RH  041%=      5-min Rain = 0
KGU1 151530Z 04011KT 04/M08 A303 RMK A01 T00421080  RH  041%=      5-min Rain = 0
KGU1 151531Z 06008KT 04/M08 A303 RMK A01 T00431077  RH  042%=      5-min Rain = 0
KGU1 151532Z 05011KT 04/M08 A303 RMK A01 T00431081  RH  040%=      5-min Rain = 0
KGU1 151533Z 06012KT 04/M08 A303 RMK A01 T00431080  RH  041%=      5-min Rain = 0
KGU1 151534Z 06010KT 04/M08 A303 RMK A01 T00421081  RH  041%=      5-min Rain = 0
KGU1 151535Z 07008KT 04/M08 A303 RMK A01 T00421082  RH  040%=      5-min Rain = 0
KGU1 151536Z 04008KT 04/M08 A303 RMK A01 T00431075  RH  042%=      5-min Rain = 0
KGU1 151537Z 05011KT 04/M08 A303 RMK A01 T00441079  RH  041%=      5-min Rain = 0
KGU1 151538Z 05010KT 04/M08 A303 RMK A01 T00441080  RH  040%=      5-min Rain = 0
KGU1 151539Z 05008KT 04/M08 A303 RMK A01 T00441078  RH  041%=      5-min Rain = 0
KGU1 151540Z 05008KT 05/M08 A303 RMK A01 T00451075  RH  042%=      5-min Rain = 0
KGU1 151541Z 06008KT 05/M08 A303 RMK A01 T00471077  RH  041%=      5-min Rain = 0
KGU1 151542Z 06010KT 05/M08 A303 RMK A01 T00481079  RH  040%=      5-min Rain = 0
KGU1 151543Z 05010KT 05/M08 A303 RMK A01 T00461084  RH  039%=      5-min Rain = 0
KGU1 151544Z 03011KT 05/M08 A303 RMK A01 T00451082  RH  040%=      5-min Rain = 0
KGU1 151545Z 03010KT 05/M08 A303 RMK A01 T00461079  RH  040%=      5-min Rain = 0
KGU1 151546Z 02009KT 05/M08 A303 RMK A01 T00461078  RH  040%=      5-min Rain = 0
KGU1 151547Z 03009KT 05/M08 A3031 RMK A01 T00461082  RH  039%=      5-min Rain = 0
KGU1 151548Z 05011KT 05/M08 A3031 RMK A01 T00461083  RH  039%=      5-min Rain = 0
KGU1 151549Z 05010KT 05/M08 A3031 RMK A01 T00461082  RH  039%=      5-min Rain = 0
KGU1 151550Z 05008KT 05/M08 A3031 RMK A01 T00461080  RH  040%=      5-min Rain = 0
KGU1 151551Z 07010KT 05/M08 A3031 RMK A01 T00471079  RH  040%=      5-min Rain = 0
KGU1 151552Z 05011KT 05/M08 A3031 RMK A01 T00471080  RH  040%=      5-min Rain = 0
KGU1 151553Z 04010G15KT 05/M08 A3031 RMK A01 T00471080  RH  040%=      5-min Rain = 0
KGU1 151554Z 05010KT 05/M08 A3031 RMK A01 T00461080  RH  040%=      5-min Rain = 0
KGU1 151555Z 04009KT 05/M08 A3031 RMK A01 T00471080  RH  040%=      5-min Rain = 0
KGU1 151556Z 04010KT 05/M08 A3031 RMK A01 T00471081  RH  039%=      5-min Rain = 0
KGU1 151557Z 05009KT 05/M08 A3031 RMK A01 T00481079  RH  040%=      5-min Rain = 0
KGU1 151558Z 05011KT 05/M08 A3031 RMK A01 T00481083  RH  039%=      5-min Rain = 0
KGU1 151559Z 06007KT 05/M08 A3031 RMK A01 T00481078  RH  040%=      5-min Rain = 0
KGU1 151600Z 04007KT 05/M08 A303 RMK A01 T00501078  RH  039%=      5-min Rain = 0
KGU1 151601Z 05009KT 05/M08 A303 RMK A01 T00511079  RH  039%=      5-min Rain = 0
KGU1 151602Z 04011KT 05/M08 A303 RMK A01 T00511081  RH  038%=      5-min Rain = 0
KGU1 151603Z 07010KT 05/M08 A303 RMK A01 T00501079  RH  039%=      5-min Rain = 0
KGU1 151604Z 06010KT 05/M08 A3031 RMK A01 T00501080  RH  039%=      5-min Rain = 0
KGU1 151605Z 07009KT 05/M08 A303 RMK A01 T00491083  RH  038%=      5-min Rain = 0
KGU1 151606Z 08009KT 05/M08 A303 RMK A01 T00491081  RH  039%=      5-min Rain = 0
KGU1 151607Z 07008KT 05/M08 A303 RMK A01 T00491082  RH  039%=      5-min Rain = 0
KGU1 151608Z 07008KT 05/M08 A303 RMK A01 T00501080  RH  039%=      5-min Rain = 0
KGU1 151609Z 04009KT 05/M08 A303 RMK A01 T00511076  RH  040%=      5-min Rain = 0
KGU1 151610Z 05010KT 05/M08 A303 RMK A01 T00521078  RH  039%=      5-min Rain = 0
KGU1 151611Z 04010KT 05/M08 A303 RMK A01 T00521083  RH  037%=      5-min Rain = 0
KGU1 151612Z 07010KT 05/M08 A303 RMK A01 T00521079  RH  039%=      5-min Rain = 0
KGU1 151613Z 08011KT 05/M08 A303 RMK A01 T00521080  RH  039%=      5-min Rain = 0
KGU1 151614Z 08009KT 05/M08 A303 RMK A01 T00511081  RH  039%=      5-min Rain = 0
KGU1 151615Z 06006KT 05/M08 A303 RMK A01 T00501078  RH  039%=      5-min Rain = 0
KGU1 151616Z 06007KT 05/M08 A303 RMK A01 T00501083  RH  038%=      5-min Rain = 0
KGU1 151617Z 06006KT 05/M08 A303 RMK A01 T00501076  RH  040%=      5-min Rain = 0
KGU1 151618Z 07007KT 05/M08 A303 RMK A01 T00521076  RH  040%=      5-min Rain = 0
KGU1 151619Z 08010KT 05/M08 A303 RMK A01 T00531081  RH  038%=      5-min Rain = 0
KGU1 151620Z 07011KT 05/M08 A303 RMK A01 T00521078  RH  039%=      5-min Rain = 0
KGU1 151621Z 06010KT 05/M08 A303 RMK A01 T00521081  RH  038%=      5-min Rain = 0
KGU1 151622Z 08008KT 05/M08 A303 RMK A01 T00511078  RH  039%=      5-min Rain = 0
KGU1 151623Z 07007KT 05/M08 A303 RMK A01 T00521080  RH  038%=      5-min Rain = 0
KGU1 151624Z 08008KT 05/M08 A303 RMK A01 T00521078  RH  039%=      5-min Rain = 0
KGU1 151625Z 09010KT 05/M08 A303 RMK A01 T00521081  RH  038%=      5-min Rain = 0
KGU1 151626Z 09010KT 05/M08 A303 RMK A01 T00521078  RH  039%=      5-min Rain = 0
KGU1 151627Z 09007KT 05/M08 A303 RMK A01 T00521076  RH  040%=      5-min Rain = 0
KGU1 151628Z 06006KT 05/M07 A303 RMK A01 T00531074  RH  040%=      5-min Rain = 0
KGU1 151629Z 04010KT 05/M08 A303 RMK A01 T00541078  RH  038%=      5-min Rain = 0
KGU1 151630Z 06010KT 06/M08 A303 RMK A01 T00551078  RH  038%=      5-min Rain = 0
KGU1 151631Z 07010KT 05/M08 A303 RMK A01 T00531081  RH  038%=      5-min Rain = 0
KGU1 151632Z 07009KT 05/M08 A303 RMK A01 T00531079  RH  038%=      5-min Rain = 0
KGU1 151633Z 09008KT 05/M08 A303 RMK A01 T00531078  RH  039%=      5-min Rain = 0
KGU1 151634Z 08007KT 05/M08 A303 RMK A01 T00531078  RH  039%=      5-min Rain = 0
KGU1 151635Z 09009KT 05/M07 A303 RMK A01 T00531074  RH  040%=      5-min Rain = 0
KGU1 151636Z 08011KT 06/M08 A303 RMK A01 T00551076  RH  039%=      5-min Rain = 0
KGU1 151637Z 08010KT 05/M08 A303 RMK A01 T00541076  RH  039%=      5-min Rain = 0
KGU1 151638Z 07011KT 06/M08 A303 RMK A01 T00551075  RH  039%=      5-min Rain = 0
KGU1 151639Z 06010KT 06/M08 A303 RMK A01 T00551075  RH  039%=      5-min Rain = 0
KGU1 151640Z 06010KT 05/M08 A303 RMK A01 T00541081  RH  037%=      5-min Rain = 0
KGU1 151641Z 06010KT 05/M08 A303 RMK A01 T00531081  RH  038%=      5-min Rain = 0
KGU1 151642Z 08008G13KT 05/M08 A303 RMK A01 T00521077  RH  039%=      5-min Rain = 0
KGU1 151643Z 08008KT 05/M08 A303 RMK A01 T00541077  RH  039%=      5-min Rain = 0
KGU1 151644Z 09009KT 06/M07 A303 RMK A01 T00551074  RH  039%=      5-min Rain = 0
KGU1 151645Z 09010KT 06/M07 A303 RMK A01 T00561073  RH  039%=      5-min Rain = 0
KGU1 151646Z 08009KT 06/M08 A303 RMK A01 T00561076  RH  038%=      5-min Rain = 0
KGU1 151647Z 07007KT 06/M08 A303 RMK A01 T00561078  RH  038%=      5-min Rain = 0
KGU1 151648Z 07009KT 06/M08 A303 RMK A01 T00551077  RH  038%=      5-min Rain = 0
KGU1 151649Z 06010KT 05/M08 A303 RMK A01 T00541080  RH  038%=      5-min Rain = 0
KGU1 151650Z 06005KT 05/M08 A303 RMK A01 T00531080  RH  038%=      5-min Rain = 0
KGU1 151651Z 08005KT 05/M07 A303 RMK A01 T00531074  RH  040%=      5-min Rain = 0
KGU1 151652Z 06007KT 06/M08 A303 RMK A01 T00551075  RH  039%=      5-min Rain = 0
KGU1 151653Z 04009KT 06/M07 A303 RMK A01 T00581069  RH  040%=      5-min Rain = 0
KGU1 151654Z 03010KT 06/M08 A303 RMK A01 T00591076  RH  038%=      5-min Rain = 0
KGU1 151655Z 05012KT 06/M08 A303 RMK A01 T00591076  RH  038%=      5-min Rain = 0
KGU1 151656Z 05013KT 06/M07 A303 RMK A01 T00591073  RH  039%=      5-min Rain = 0
KGU1 151657Z 06010KT 06/M07 A303 RMK A01 T00601074  RH  038%=      5-min Rain = 0
KGU1 151658Z 08010KT 06/M08 A303 RMK A01 T00591075  RH  038%=      5-min Rain = 0
KGU1 151659Z 08009KT 06/M07 A303 RMK A01 T00591073  RH  039%=      5-min Rain = 0
KGU1 151700Z 09006KT 06/M08 A303 RMK A01 T00581079  RH  037%=      5-min Rain = 0
KGU1 151701Z 08007KT 06/M08 A303 RMK A01 T00571078  RH  038%=      5-min Rain = 0
KGU1 151702Z 08009KT 06/M08 A303 RMK A01 T00561078  RH  038%=      5-min Rain = 0
KGU1 151703Z 08011KT 06/M08 A303 RMK A01 T00561076  RH  038%=      5-min Rain = 0
KGU1 151704Z 09010KT 06/M08 A303 RMK A01 T00571079  RH  037%=      5-min Rain = 0
KGU1 151705Z 08007KT 06/M07 A303 RMK A01 T00571073  RH  039%=      5-min Rain = 0
KGU1 151706Z 06007KT 06/M08 A303 RMK A01 T00581078  RH  037%=      5-min Rain = 0
KGU1 151707Z 09010KT 06/M07 A303 RMK A01 T00581074  RH  039%=      5-min Rain = 0
KGU1 151708Z 11012KT 06/M08 A303 RMK A01 T00601075  RH  038%=      5-min Rain = 0
KGU1 151709Z 11013KT 06/M08 A303 RMK A01 T00591076  RH  038%=      5-min Rain = 0
KGU1 151710Z 10010KT 06/M07 A303 RMK A01 T00601072  RH  039%=      5-min Rain = 0
KGU1 151711Z 09011KT 06/M08 A303 RMK A01 T00601080  RH  036%=      5-min Rain = 0
KGU1 151712Z 09009KT 06/M07 A303 RMK A01 T00581073  RH  039%=      5-min Rain = 0
KGU1 151713Z 08007KT 06/M08 A303 RMK A01 T00581083  RH  036%=      5-min Rain = 0
KGU1 151714Z 09007KT 06/M08 A303 RMK A01 T00571081  RH  037%=      5-min Rain = 0
KGU1 151715Z 08007KT 06/M08 A303 RMK A01 T00571080  RH  037%=      5-min Rain = 0
KGU1 151716Z 07007KT 06/M07 A303 RMK A01 T00571072  RH  039%=      5-min Rain = 0
KGU1 151717Z 08010KT 06/M07 A303 RMK A01 T00601074  RH  038%=      5-min Rain = 0
KGU1 151718Z 09009KT 06/M08 A303 RMK A01 T00601077  RH  037%=      5-min Rain = 0
KGU1 151719Z 09009KT 06/M07 A303 RMK A01 T00591073  RH  039%=      5-min Rain = 0
KGU1 151720Z 07011KT 06/M07 A303 RMK A01 T00601071  RH  039%=      5-min Rain = 0
KGU1 151721Z 06011KT 06/M08 A303 RMK A01 T00611075  RH  037%=      5-min Rain = 0
KGU1 151722Z 06009KT 06/M08 A303 RMK A01 T00611075  RH  037%=      5-min Rain = 0
KGU1 151723Z 06009KT 06/M07 A303 RMK A01 T00611074  RH  038%=      5-min Rain = 0
KGU1 151724Z 06009KT 06/M08 A303 RMK A01 T00601076  RH  037%=      5-min Rain = 0
KGU1 151725Z 05008KT 06/M08 A303 RMK A01 T00601076  RH  037%=      5-min Rain = 0
KGU1 151726Z 02007KT 06/M08 A303 RMK A01 T00601079  RH  037%=      5-min Rain = 0
KGU1 151727Z 07007G15KT 06/M08 A303 RMK A01 T00591075  RH  038%=      5-min Rain = 0
KGU1 151728Z 09011KT 06/M07 A303 RMK A01 T00611073  RH  038%=      5-min Rain = 0
KGU1 151729Z 08011KT 06/M08 A303 RMK A01 T00611076  RH  037%=      5-min Rain = 0
KGU1 151730Z 08007KT 06/M08 A303 RMK A01 T00601079  RH  036%=      5-min Rain = 0
KGU1 151731Z 08006KT 06/M07 A303 RMK A01 T00591074  RH  038%=      5-min Rain = 0
KGU1 151732Z 06008KT 06/M07 A303 RMK A01 T00601072  RH  039%=      5-min Rain = 0
KGU1 151733Z 06007KT 06/M07 A303 RMK A01 T00621070  RH  039%=      5-min Rain = 0
KGU1 151734Z 08008KT 07/M07 A3029 RMK A01 T00651069  RH  038%=      5-min Rain = 0
KGU1 151735Z 07010KT 07/M08 A3029 RMK A01 T00651075  RH  036%=      5-min Rain = 0
KGU1 151736Z 07011KT 06/M08 A3029 RMK A01 T00641076  RH  036%=      5-min Rain = 0
KGU1 151737Z 08009KT 06/M07 A3029 RMK A01 T00631069  RH  039%=      5-min Rain = 0
KGU1 151738Z 06008KT 07/M07 A3029 RMK A01 T00651069  RH  038%=      5-min Rain = 0
KGU1 151739Z 05010KT 07/M07 A3029 RMK A01 T00671071  RH  037%=      5-min Rain = 0
KGU1 151740Z 06010KT 07/M08 A3029 RMK A01 T00651077  RH  036%=      5-min Rain = 0
KGU1 151741Z 08011KT 06/M08 A3029 RMK A01 T00641076  RH  036%=      5-min Rain = 0
KGU1 151742Z 09010KT 06/M07 A3029 RMK A01 T00631073  RH  037%=      5-min Rain = 0
KGU1 151743Z 08011KT 06/M07 A3029 RMK A01 T00631072  RH  038%=      5-min Rain = 0
KGU1 151744Z 09011KT 06/M08 A3029 RMK A01 T00631076  RH  037%=      5-min Rain = 0
KGU1 151745Z 08009KT 06/M08 A3029 RMK A01 T00621078  RH  036%=      5-min Rain = 0
KGU1 151746Z 07011KT 06/M08 A3029 RMK A01 T00611078  RH  037%=      5-min Rain = 0
KGU1 151747Z 08011KT 06/M08 A3029 RMK A01 T00611075  RH  037%=      5-min Rain = 0
KGU1 151748Z 08011KT 07/M07 A3029 RMK A01 T00651070  RH  038%=      5-min Rain = 0
KGU1 151749Z 07011KT 07/M08 A3029 RMK A01 T00651078  RH  036%=      5-min Rain = 0
KGU1 151750Z 05011KT 06/M08 A3029 RMK A01 T00641081  RH  035%=      5-min Rain = 0
KGU1 151751Z 04007KT 06/M08 A3029 RMK A01 T00631080  RH  036%=      5-min Rain = 0
KGU1 151752Z 07005KT 06/M08 A3029 RMK A01 T00631080  RH  036%=      5-min Rain = 0
KGU1 151753Z 08010G15KT 06/M08 A3029 RMK A01 T00641077  RH  036%=      5-min Rain = 0
KGU1 151754Z 09012KT 06/M08 A3029 RMK A01 T00641077  RH  036%=      5-min Rain = 0
KGU1 151755Z 08009KT 07/M07 A3029 RMK A01 T00661066  RH  039%=      5-min Rain = 0
KGU1 151756Z 08011KT 07/M08 A3029 RMK A01 T00661079  RH  035%=      5-min Rain = 0
KGU1 151757Z 08011KT 07/M08 A3029 RMK A01 T00651081  RH  035%=      5-min Rain = 0
KGU1 151758Z 07008KT 06/M08 A3029 RMK A01 T00621084  RH  035%=      5-min Rain = 0
KGU1 151759Z 10008KT 06/M08 A3028 RMK A01 T00601077  RH  037%=      5-min Rain = 0
KGU1 151800Z 11006KT 06/M07 A3028 RMK A01 T00611073  RH  038%=      5-min Rain = 0
KGU1 151801Z 08005KT 06/M08 A3028 RMK A01 T00631076  RH  037%=      5-min Rain = 0
KGU1 151802Z 10009KT 06/M07 A3028 RMK A01 T00641071  RH  038%=      5-min Rain = 0
KGU1 151803Z 11009KT 07/M07 A3028 RMK A01 T00651072  RH  037%=      5-min Rain = 0
KGU1 151804Z 08009KT 07/M07 A3028 RMK A01 T00661069  RH  038%=      5-min Rain = 0
KGU1 151805Z 08008KT 07/M07 A3028 RMK A01 T00681071  RH  037%=      5-min Rain = 0
KGU1 151806Z 06009KT 07/M08 A3028 RMK A01 T00691075  RH  035%=      5-min Rain = 0
KGU1 151807Z 04009KT 07/M08 A3028 RMK A01 T00671076  RH  036%=      5-min Rain = 0
KGU1 151808Z 03009KT 07/M08 A3028 RMK A01 T00651081  RH  035%=      5-min Rain = 0
KGU1 151809Z 03008KT 06/M08 A3028 RMK A01 T00631078  RH  036%=      5-min Rain = 0
KGU1 151810Z 05009G14KT 07/M07 A3028 RMK A01 T00651070  RH  038%=      5-min Rain = 0
KGU1 151811Z 05013KT 07/M07 A3028 RMK A01 T00661074  RH  037%=      5-min Rain = 0
KGU1 151812Z 08010KT 07/M08 A3028 RMK A01 T00651079  RH  035%=      5-min Rain = 0
KGU1 151813Z 08008KT 07/M07 A3028 RMK A01 T00651074  RH  037%=      5-min Rain = 0
KGU1 151814Z 10010KT 07/M07 A3028 RMK A01 T00651074  RH  037%=      5-min Rain = 0
KGU1 151815Z 09009KT 07/M07 A3028 RMK A01 T00671072  RH  037%=      5-min Rain = 0
KGU1 151816Z 07009KT 07/M07 A3028 RMK A01 T00671074  RH  036%=      5-min Rain = 0
KGU1 151817Z 07009KT 07/M08 A3028 RMK A01 T00671077  RH  036%=      5-min Rain = 0
KGU1 151818Z 07008KT 07/M07 A3028 RMK A01 T00671070  RH  037%=      5-min Rain = 0
KGU1 151819Z 07007KT 07/M08 A3028 RMK A01 T00671077  RH  035%=      5-min Rain = 0
KGU1 151820Z 05006KT 07/M08 A3028 RMK A01 T00661079  RH  035%=      5-min Rain = 0
KGU1 151821Z 05007KT 07/M08 A3028 RMK A01 T00651081  RH  035%=      5-min Rain = 0
KGU1 151822Z 05009KT 07/M08 A3028 RMK A01 T00651082  RH  035%=      5-min Rain = 0
KGU1 151823Z 06005KT 06/M08 A3028 RMK A01 T00631081  RH  035%=      5-min Rain = 0
KGU1 151824Z 03007KT 06/M08 A3028 RMK A01 T00621082  RH  035%=      5-min Rain = 0
KGU1 151825Z 02005KT 06/M08 A3028 RMK A01 T00621075  RH  037%=      5-min Rain = 0
KGU1 151826Z 05004KT 06/M08 A3027 RMK A01 T00621083  RH  035%=      5-min Rain = 0
KGU1 151827Z 07009KT 06/M08 A3027 RMK A01 T00631075  RH  037%=      5-min Rain = 0
KGU1 151828Z 06012KT 06/M07 A3027 RMK A01 T00641074  RH  037%=      5-min Rain = 0
KGU1 151829Z 07009KT 06/M08 A3027 RMK A01 T00641075  RH  037%=      5-min Rain = 0
KGU1 151830Z 07008KT 07/M07 A3027 RMK A01 T00651071  RH  038%=      5-min Rain = 0
KGU1 151831Z 04009KT 07/M08 A3027 RMK A01 T00661083  RH  034%=      5-min Rain = 0
KGU1 151832Z 05006KT 06/M09 A3027 RMK A01 T00631085  RH  034%=      5-min Rain = 0
KGU1 151833Z 06007KT 06/M07 A3027 RMK A01 T00641073  RH  037%=      5-min Rain = 0
KGU1 151834Z 07007KT 07/M08 A3027 RMK A01 T00651080  RH  035%=      5-min Rain = 0
KGU1 151835Z 07007KT 06/M08 A3027 RMK A01 T00641077  RH  036%=      5-min Rain = 0
KGU1 151836Z 09004KT 06/M08 A3027 RMK A01 T00631078  RH  036%=      5-min Rain = 0
KGU1 151837Z 06004KT 06/M08 A3027 RMK A01 T00631077  RH  036%=      5-min Rain = 0
KGU1 151838Z 07007KT 06/M08 A3027 RMK A01 T00631077  RH  036%=      5-min Rain = 0
KGU1 151839Z 06006KT 06/M08 A3027 RMK A01 T00631078  RH  036%=      5-min Rain = 0
KGU1 151840Z 07005KT 06/M07 A3027 RMK A01 T00631074  RH  037%=      5-min Rain = 0
KGU1 151841Z 09010KT 06/M07 A3027 RMK A01 T00641074  RH  037%=      5-min Rain = 0
KGU1 151842Z 09009KT 06/M08 A3027 RMK A01 T00641075  RH  037%=      5-min Rain = 0
KGU1 151843Z 08008KT 07/M08 A3027 RMK A01 T00651075  RH  036%=      5-min Rain = 0
KGU1 151844Z 09006KT 07/M08 A3027 RMK A01 T00651076  RH  036%=      5-min Rain = 0
KGU1 151845Z 10008KT 07/M08 A3027 RMK A01 T00661076  RH  036%=      5-min Rain = 0
KGU1 151846Z 10006KT 07/M08 A3027 RMK A01 T00661076  RH  036%=      5-min Rain = 0
KGU1 151847Z 11007KT 07/M08 A3027 RMK A01 T00671081  RH  034%=      5-min Rain = 0
KGU1 151848Z 10007KT 07/M08 A3027 RMK A01 T00671077  RH  035%=      5-min Rain = 0
KGU1 151849Z 09002KT 07/M08 A3027 RMK A01 T00681079  RH  035%=      5-min Rain = 0
KGU1 151850Z 09003KT 07/M08 A3027 RMK A01 T00691078  RH  035%=      5-min Rain = 0
KGU1 151851Z 09005KT 07/M08 A3027 RMK A01 T00701078  RH  034%=      5-min Rain = 0
KGU1 151852Z 06007KT 07/M07 A3027 RMK A01 T00711069  RH  036%=      5-min Rain = 0
KGU1 151853Z 06006KT 07/M08 A3027 RMK A01 T00721077  RH  034%=      5-min Rain = 0
KGU1 151854Z 05003KT 07/M08 A3027 RMK A01 T00711077  RH  034%=      5-min Rain = 0
KGU1 151855Z 04003KT 07/M08 A3026 RMK A01 T00711075  RH  035%=      5-min Rain = 0
KGU1 151856Z 04003KT 07/M08 A3026 RMK A01 T00721077  RH  034%=      5-min Rain = 0
KGU1 151857Z 04002KT 07/M08 A3026 RMK A01 T00701083  RH  033%=      5-min Rain = 0
KGU1 151858Z 09005KT 07/M08 A3026 RMK A01 T00691076  RH  035%=      5-min Rain = 0
KGU1 151859Z 09006KT 07/M08 A3026 RMK A01 T00691077  RH  035%=      5-min Rain = 0
KGU1 151900Z 08007KT 07/M07 A3026 RMK A01 T00701066  RH  038%=      5-min Rain = 0
KGU1 151901Z 10011KT 07/M07 A3026 RMK A01 T00731070  RH  036%=      5-min Rain = 0
KGU1 151902Z 09011KT 07/M07 A3026 RMK A01 T00741071  RH  035%=      5-min Rain = 0
KGU1 151903Z 09011KT 07/M07 A3026 RMK A01 T00731073  RH  035%=      5-min Rain = 0
KGU1 151904Z 08010KT 07/M08 A3026 RMK A01 T00711079  RH  034%=      5-min Rain = 0
KGU1 151905Z 08008KT 07/M08 A3026 RMK A01 T00691079  RH  034%=      5-min Rain = 0
KGU1 151906Z 07004KT 07/M08 A3026 RMK A01 T00671083  RH  034%=      5-min Rain = 0
KGU1 151907Z 08006KT 07/M08 A3026 RMK A01 T00661077  RH  036%=      5-min Rain = 0
KGU1 151908Z 10007KT 07/M08 A3026 RMK A01 T00671080  RH  035%=      5-min Rain = 0
KGU1 151909Z 12006KT 07/M08 A3026 RMK A01 T00661079  RH  035%=      5-min Rain = 0
KGU1 151910Z 11005KT 07/M07 A3026 RMK A01 T00671071  RH  037%=      5-min Rain = 0
KGU1 151911Z 11006KT 07/M08 A3026 RMK A01 T00681078  RH  035%=      5-min Rain = 0
KGU1 151912Z 13004KT 07/M08 A3026 RMK A01 T00681076  RH  035%=      5-min Rain = 0
KGU1 151913Z 09006KT 07/M07 A3026 RMK A01 T00701072  RH  036%=      5-min Rain = 0
KGU1 151914Z 08006KT 07/M08 A3026 RMK A01 T00711076  RH  035%=      5-min Rain = 0
KGU1 151915Z 07009KT 07/M08 A3026 RMK A01 T00701076  RH  035%=      5-min Rain = 0
KGU1 151916Z 07007KT 07/M08 A3026 RMK A01 T00691077  RH  035%=      5-min Rain = 0
KGU1 151917Z 06006KT 07/M08 A3026 RMK A01 T00681076  RH  035%=      5-min Rain = 0
KGU1 151918Z 08006KT 07/M08 A3026 RMK A01 T00671076  RH  036%=      5-min Rain = 0
KGU1 151919Z 05007KT 07/M08 A3026 RMK A01 T00671080  RH  035%=      5-min Rain = 0
KGU1 151920Z 04004KT 07/M08 A3026 RMK A01 T00671077  RH  035%=      5-min Rain = 0
KGU1 151921Z 09002KT 07/M08 A3026 RMK A01 T00661081  RH  034%=      5-min Rain = 0
KGU1 151922Z 14002KT 07/M08 A3026 RMK A01 T00681076  RH  035%=      5-min Rain = 0
KGU1 151923Z 19003KT 07/M08 A3025 RMK A01 T00691076  RH  035%=      5-min Rain = 0
KGU1 151924Z 10003KT 07/M08 A3025 RMK A01 T00701076  RH  035%=      5-min Rain = 0
KGU1 151925Z 08007KT 07/M07 A3025 RMK A01 T00721069  RH  036%=      5-min Rain = 0
KGU1 151926Z 09011KT 07/M07 A3025 RMK A01 T00731072  RH  035%=      5-min Rain = 0
KGU1 151927Z 07008KT 07/M07 A3025 RMK A01 T00721074  RH  035%=      5-min Rain = 0
KGU1 151928Z 10007KT 07/M07 A3025 RMK A01 T00721066  RH  037%=      5-min Rain = 0
KGU1 151929Z 10009KT 07/M07 A3025 RMK A01 T00741071  RH  035%=      5-min Rain = 0
KGU1 151930Z 12008KT 07/M07 A3025 RMK A01 T00741067  RH  036%=      5-min Rain = 0
KGU1 151931Z 14008KT 07/M07 A3025 RMK A01 T00741072  RH  035%=      5-min Rain = 0
KGU1 151932Z 14008KT 07/M08 A3025 RMK A01 T00741076  RH  034%=      5-min Rain = 0
KGU1 151933Z 15006KT 07/M08 A3025 RMK A01 T00721076  RH  035%=      5-min Rain = 0
KGU1 151934Z 16005KT 07/M08 A3025 RMK A01 T00711075  RH  035%=      5-min Rain = 0
KGU1 151935Z 11003KT 07/M07 A3025 RMK A01 T00711072  RH  036%=      5-min Rain = 0
KGU1 151936Z 11004KT 07/M07 A3025 RMK A01 T00731073  RH  035%=      5-min Rain = 0
KGU1 151937Z 09004KT 07/M07 A3025 RMK A01 T00741072  RH  035%=      5-min Rain = 0
KGU1 151938Z 08003KT 07/M08 A3025 RMK A01 T00741075  RH  034%=      5-min Rain = 0
KGU1 151939Z 11004KT 07/M07 A3025 RMK A01 T00741073  RH  035%=      5-min Rain = 0
KGU1 151940Z 14008KT 07/M07 A3025 RMK A01 T00741074  RH  034%=      5-min Rain = 0
KGU1 151941Z 14007KT 07/M08 A3025 RMK A01 T00731077  RH  034%=      5-min Rain = 0
KGU1 151942Z 15006KT 07/M07 A3025 RMK A01 T00711074  RH  035%=      5-min Rain = 0
KGU1 151943Z 12007KT 07/M08 A3025 RMK A01 T00711075  RH  035%=      5-min Rain = 0
KGU1 151944Z 12007KT 07/M07 A3025 RMK A01 T00711073  RH  036%=      5-min Rain = 0
KGU1 151945Z 09006KT 07/M08 A3025 RMK A01 T00711076  RH  035%=      5-min Rain = 0
KGU1 151946Z 09007G12KT 07/M07 A3025 RMK A01 T00711072  RH  036%=      5-min Rain = 0
KGU1 151947Z 12006KT 07/M08 A3025 RMK A01 T00711075  RH  035%=      5-min Rain = 0
KGU1 151948Z 13006KT 07/M07 A3025 RMK A01 T00721072  RH  035%=      5-min Rain = 0
KGU1 151949Z 10004KT 07/M07 A3025 RMK A01 T00741068  RH  036%=      5-min Rain = 0
KGU1 151950Z 06006KT 08/M07 A3025 RMK A01 T00781068  RH  035%=      5-min Rain = 0
KGU1 151951Z 05007KT 08/M08 A3025 RMK A01 T00771077  RH  033%=      5-min Rain = 0
KGU1 151952Z 06005KT 08/M08 A3025 RMK A01 T00751077  RH  034%=      5-min Rain = 0
KGU1 151953Z 09008KT 07/M08 A3024 RMK A01 T00731079  RH  033%=      5-min Rain = 0
KGU1 151954Z 08005KT 07/M08 A3024 RMK A01 T00711079  RH  034%=      5-min Rain = 0
KGU1 151955Z 08005KT 07/M08 A3024 RMK A01 T00701080  RH  034%=      5-min Rain = 0
KGU1 151956Z 09005KT 07/M08 A3024 RMK A01 T00691083  RH  033%=      5-min Rain = 0
KGU1 151957Z 09002KT 07/M08 A3024 RMK A01 T00681081  RH  034%=      5-min Rain = 0
KGU1 151958Z 03005KT 07/M08 A3024 RMK A01 T00681082  RH  034%=      5-min Rain = 0
KGU1 151959Z 02004KT 07/M08 A3024 RMK A01 T00691077  RH  035%=      5-min Rain = 0
KGU1 152000Z 05003KT 07/M07 A3024 RMK A01 T00721074  RH  035%=      5-min Rain = 0
KGU1 152001Z 08004KT 07/M08 A3024 RMK A01 T00741083  RH  032%=      5-min Rain = 0
KGU1 152002Z 10002KT 07/M09 A3024 RMK A01 T00731089  RH  031%=      5-min Rain = 0
KGU1 152003Z 08002KT 07/M08 A3024 RMK A01 T00731084  RH  032%=      5-min Rain = 0
KGU1 152004Z 07006KT 07/M08 A3024 RMK A01 T00741082  RH  032%=      5-min Rain = 0
KGU1 152005Z 05006KT 07/M08 A3024 RMK A01 T00731082  RH  033%=      5-min Rain = 0
KGU1 152006Z 07006KT 07/M08 A3024 RMK A01 T00731079  RH  034%=      5-min Rain = 0
KGU1 152007Z 07005KT 07/M08 A3024 RMK A01 T00741078  RH  034%=      5-min Rain = 0
KGU1 152008Z 06006KT 08/M08 A3024 RMK A01 T00761076  RH  034%=      5-min Rain = 0
KGU1 152009Z 08005KT 08/M08 A3024 RMK A01 T00761083  RH  032%=      5-min Rain = 0
KGU1 152010Z 06004KT 08/M08 A3024 RMK A01 T00761078  RH  033%=      5-min Rain = 0
KGU1 152011Z 05005KT 08/M08 A3024 RMK A01 T00751082  RH  032%=      5-min Rain = 0
KGU1 152012Z 04004KT 08/M08 A3024 RMK A01 T00751082  RH  032%=      5-min Rain = 0
KGU1 152013Z 05004KT 07/M08 A3024 RMK A01 T00741083  RH  032%=      5-min Rain = 0
KGU1 152014Z 04003KT 07/M08 A3024 RMK A01 T00741084  RH  032%=      5-min Rain = 0
KGU1 152015Z 04006KT 08/M08 A3024 RMK A01 T00751076  RH  034%=      5-min Rain = 0
KGU1 152016Z 05008KT 08/M08 A3024 RMK A01 T00781078  RH  033%=      5-min Rain = 0
KGU1 152017Z 05007KT 08/M08 A3024 RMK A01 T00771078  RH  033%=      5-min Rain = 0
KGU1 152018Z 06005KT 08/M08 A3024 RMK A01 T00761084  RH  032%=      5-min Rain = 0
KGU1 152019Z 07006KT 08/M08 A3024 RMK A01 T00751076  RH  034%=      5-min Rain = 0
KGU1 152020Z 05006KT 08/M07 A3024 RMK A01 T00771074  RH  034%=      5-min Rain = 0
KGU1 152021Z 06005G11KT 08/M07 A3024 RMK A01 T00791072  RH  034%=      5-min Rain = 0
KGU1 152022Z 10005KT 08/M07 A3024 RMK A01 T00811069  RH  034%=      5-min Rain = 0
KGU1 152023Z 10006KT 08/M07 A3024 RMK A01 T00821074  RH  033%=      5-min Rain = 0
KGU1 152024Z 09005KT 08/M08 A3024 RMK A01 T00791079  RH  032%=      5-min Rain = 0
KGU1 152025Z 13006KT 08/M07 A3024 RMK A01 T00771070  RH  035%=      5-min Rain = 0
KGU1 152026Z 11007KT 08/M07 A3024 RMK A01 T00791070  RH  034%=      5-min Rain = 0
KGU1 152027Z 11008KT 08/M07 A3023 RMK A01 T00791073  RH  034%=      5-min Rain = 0
KGU1 152028Z 14006KT 08/M07 A3023 RMK A01 T00791072  RH  034%=      5-min Rain = 0
KGU1 152029Z 12005KT 08/M07 A3023 RMK A01 T00801073  RH  033%=      5-min Rain = 0
KGU1 152030Z 09008KT 08/M07 A3023 RMK A01 T00801071  RH  034%=      5-min Rain = 0
KGU1 152031Z 08006KT 08/M08 A3023 RMK A01 T00791079  RH  032%=      5-min Rain = 0
KGU1 152032Z 06004KT 08/M08 A3023 RMK A01 T00771079  RH  032%=      5-min Rain = 0
KGU1 152033Z 06001KT 08/M08 A3023 RMK A01 T00761075  RH  034%=      5-min Rain = 0
KGU1 152034Z 17003KT 08/M07 A3023 RMK A01 T00781070  RH  035%=      5-min Rain = 0
KGU1 152035Z 15004KT 08/M07 A3023 RMK A01 T00801071  RH  034%=      5-min Rain = 0
KGU1 152036Z 12005KT 08/M07 A3023 RMK A01 T00811073  RH  033%=      5-min Rain = 0
KGU1 152037Z 13006KT 08/M07 A3023 RMK A01 T00811073  RH  033%=      5-min Rain = 0
KGU1 152038Z 12005KT 08/M07 A3023 RMK A01 T00811073  RH  033%=      5-min Rain = 0
KGU1 152039Z 14003KT 08/M07 A3023 RMK A01 T00821073  RH  033%=      5-min Rain = 0
KGU1 152040Z 11005KT 08/M07 A3023 RMK A01 T00821072  RH  033%=      5-min Rain = 0
KGU1 152041Z 10005KT 08/M08 A3023 RMK A01 T00821078  RH  032%=      5-min Rain = 0
KGU1 152042Z 10004KT 08/M08 A3023 RMK A01 T00801075  RH  033%=      5-min Rain = 0
KGU1 152043Z 09004KT 08/M08 A3023 RMK A01 T00801075  RH  033%=      5-min Rain = 0
KGU1 152044Z 09003KT 08/M07 A3023 RMK A01 T00801073  RH  033%=      5-min Rain = 0
KGU1 152045Z 09006KT 08/M08 A3023 RMK A01 T00801076  RH  033%=      5-min Rain = 0
KGU1 152046Z 11006KT 08/M08 A3023 RMK A01 T00801077  RH  032%=      5-min Rain = 0
KGU1 152047Z 10006KT 08/M07 A3023 RMK A01 T00791074  RH  033%=      5-min Rain = 0
KGU1 152048Z 09008KT 08/M08 A3023 RMK A01 T00791077  RH  033%=      5-min Rain = 0
KGU1 152049Z 09006KT 08/M08 A3023 RMK A01 T00771080  RH  032%=      5-min Rain = 0
KGU1 152050Z 09007KT 08/M08 A3023 RMK A01 T00761077  RH  033%=      5-min Rain = 0
KGU1 152051Z 10009KT 08/M08 A3023 RMK A01 T00771077  RH  033%=      5-min Rain = 0
KGU1 152052Z 11007KT 08/M08 A3023 RMK A01 T00761082  RH  032%=      5-min Rain = 0
KGU1 152053Z 09007KT 08/M08 A3023 RMK A01 T00751075  RH  034%=      5-min Rain = 0
KGU1 152054Z 09008KT 08/M08 A3023 RMK A01 T00761079  RH  033%=      5-min Rain = 0
KGU1 152055Z 10009KT 08/M08 A3022 RMK A01 T00771077  RH  033%=      5-min Rain = 0
KGU1 152056Z 10007KT 08/M08 A3022 RMK A01 T00771078  RH  033%=      5-min Rain = 0
KGU1 152057Z 08008KT 08/M07 A3022 RMK A01 T00781074  RH  034%=      5-min Rain = 0
KGU1 152058Z 09005KT 08/M08 A3023 RMK A01 T00791078  RH  033%=      5-min Rain = 0
KGU1 152059Z 11002KT 08/M08 A3023 RMK A01 T00791076  RH  033%=      5-min Rain = 0
KGU1 152100Z 09002KT 08/M08 A3022 RMK A01 T00801083  RH  031%=      5-min Rain = 0
KGU1 152101Z 10001G7KT 08/M08 A3022 RMK A01 T00801080  RH  031%=      5-min Rain = 0
KGU1 152102Z 08007KT 08/M08 A3022 RMK A01 T00811077  RH  032%=      5-min Rain = 0
KGU1 152103Z 09004KT 08/M08 A3022 RMK A01 T00801078  RH  032%=      5-min Rain = 0
KGU1 152104Z 10006KT 08/M08 A3022 RMK A01 T00801075  RH  033%=      5-min Rain = 0
KGU1 152105Z 07004KT 08/M08 A3022 RMK A01 T00811079  RH  032%=      5-min Rain = 0
KGU1 152106Z 08003KT 08/M08 A3022 RMK A01 T00811078  RH  032%=      5-min Rain = 0
KGU1 152107Z 13004KT 08/M08 A3022 RMK A01 T00811076  RH  032%=      5-min Rain = 0
KGU1 152108Z 15005KT 08/M08 A3022 RMK A01 T00831077  RH  032%=      5-min Rain = 0
KGU1 152109Z 15002KT 08/M08 A3022 RMK A01 T00821083  RH  030%=      5-min Rain = 0
KGU1 152110Z 21002KT 08/M08 A3022 RMK A01 T00811081  RH  031%=      5-min Rain = 0
KGU1 152111Z 22003KT 08/M08 A3022 RMK A01 T00801081  RH  031%=      5-min Rain = 0
KGU1 152112Z 10004KT 08/M08 A3022 RMK A01 T00811080  RH  031%=      5-min Rain = 0
KGU1 152113Z 11005KT 08/M08 A3022 RMK A01 T00811077  RH  032%=      5-min Rain = 0
KGU1 152114Z 12002KT 08/M08 A3022 RMK A01 T00801083  RH  031%=      5-min Rain = 0
KGU1 152115Z 21002KT 08/M08 A3021 RMK A01 T00791081  RH  032%=      5-min Rain = 0
KGU1 152116Z 24002KT 08/M08 A3021 RMK A01 T00811080  RH  032%=      5-min Rain = 0
KGU1 152117Z 17002KT 08/M08 A3021 RMK A01 T00821078  RH  032%=      5-min Rain = 0
KGU1 152118Z 15003KT 08/M08 A3021 RMK A01 T00841078  RH  031%=      5-min Rain = 0
KGU1 152119Z 09009KT 09/M07 A3021 RMK A01 T00851074  RH  032%=      5-min Rain = 0
KGU1 152120Z 09010KT 08/M08 A3021 RMK A01 T00841075  RH  032%=      5-min Rain = 0
KGU1 152121Z 09008KT 08/M08 A3021 RMK A01 T00831077  RH  032%=      5-min Rain = 0
KGU1 152122Z 11008KT 08/M07 A3021 RMK A01 T00821074  RH  033%=      5-min Rain = 0
KGU1 152123Z 09008KT 08/M07 A3021 RMK A01 T00831074  RH  033%=      5-min Rain = 0
KGU1 152124Z 07007KT 08/M08 A3021 RMK A01 T00831075  RH  032%=      5-min Rain = 0
KGU1 152125Z 07007KT 08/M07 A3021 RMK A01 T00831074  RH  033%=      5-min Rain = 0
KGU1 152126Z 05006KT 08/M08 A3021 RMK A01 T00831079  RH  031%=      5-min Rain = 0
KGU1 152127Z 05005KT 08/M08 A3021 RMK A01 T00811077  RH  032%=      5-min Rain = 0
KGU1 152128Z 09005KT 08/M08 A3021 RMK A01 T00811077  RH  032%=      5-min Rain = 0
KGU1 152129Z 10005KT 08/M08 A3021 RMK A01 T00811076  RH  033%=      5-min Rain = 0
KGU1 152130Z 13004KT 08/M08 A3021 RMK A01 T00811076  RH  032%=      5-min Rain = 0
KGU1 152131Z 14004KT 08/M08 A3021 RMK A01 T00811078  RH  032%=      5-min Rain = 0
KGU1 152132Z 12005KT 08/M08 A3021 RMK A01 T00821076  RH  032%=      5-min Rain = 0
KGU1 152133Z 14006KT 08/M08 A3021 RMK A01 T00831076  RH  032%=      5-min Rain = 0
KGU1 152134Z 14004KT 08/M08 A3021 RMK A01 T00831078  RH  032%=      5-min Rain = 0
KGU1 152135Z 13004KT 08/M08 A3021 RMK A01 T00831075  RH  032%=      5-min Rain = 0
KGU1 152136Z 13006KT 08/M08 A3021 RMK A01 T00841080  RH  031%=      5-min Rain = 0
KGU1 152137Z 14006KT 08/M07 A3021 RMK A01 T00821074  RH  033%=      5-min Rain = 0
KGU1 152138Z 14008KT 08/M08 A3021 RMK A01 T00831077  RH  032%=      5-min Rain = 0
KGU1 152139Z 14005KT 08/M08 A3021 RMK A01 T00821076  RH  032%=      5-min Rain = 0
KGU1 152140Z 15007KT 08/M08 A3021 RMK A01 T00821076  RH  032%=      5-min Rain = 0
KGU1 152141Z 17008KT 08/M08 A3021 RMK A01 T00821077  RH  032%=      5-min Rain = 0
KGU1 152142Z 14005KT 08/M08 A3021 RMK A01 T00811077  RH  032%=      5-min Rain = 0
KGU1 152143Z 11003KT 08/M07 A3021 RMK A01 T00821073  RH  033%=      5-min Rain = 0
KGU1 152144Z 10004KT 08/M08 A3021 RMK A01 T00831079  RH  031%=      5-min Rain = 0
KGU1 152145Z 14002KT 08/M08 A3021 RMK A01 T00821078  RH  032%=      5-min Rain = 0
KGU1 152146Z 12002KT 08/M08 A3021 RMK A01 T00821078  RH  032%=      5-min Rain = 0
KGU1 152147Z 16002KT 08/M08 A3021 RMK A01 T00821080  RH  031%=      5-min Rain = 0
KGU1 152148Z 17002KT 08/M08 A3021 RMK A01 T00811081  RH  031%=      5-min Rain = 0
KGU1 152149Z 17001KT 08/M08 A3021 RMK A01 T00801078  RH  032%=      5-min Rain = 0
KGU1 152150Z 10001G6KT 08/M08 A302 RMK A01 T00811078  RH  032%=      5-min Rain = 0
KGU1 152151Z 09006KT 08/M08 A302 RMK A01 T00821079  RH  031%=      5-min Rain = 0
KGU1 152152Z 10006KT 08/M08 A302 RMK A01 T00811076  RH  033%=      5-min Rain = 0
KGU1 152153Z 10004KT 08/M08 A302 RMK A01 T00811080  RH  031%=      5-min Rain = 0
KGU1 152154Z 08003G10KT 08/M08 A302 RMK A01 T00801077  RH  032%=      5-min Rain = 0
KGU1 152155Z 07008KT 08/M08 A302 RMK A01 T00811076  RH  032%=      5-min Rain = 0
KGU1 152156Z 07007KT 08/M08 A302 RMK A01 T00811077  RH  032%=      5-min Rain = 0
KGU1 152157Z 07008KT 08/M08 A302 RMK A01 T00811075  RH  033%=      5-min Rain = 0
KGU1 152158Z 06007KT 08/M08 A302 RMK A01 T00801078  RH  032%=      5-min Rain = 0
KGU1 152159Z 07006KT 08/M08 A302 RMK A01 T00791080  RH  032%=      5-min Rain = 0
KGU1 152200Z 07006KT 08/M08 A302 RMK A01 T00781079  RH  032%=      5-min Rain = 0
KGU1 152201Z 07005KT 08/M08 A302 RMK A01 T00771080  RH  032%=      5-min Rain = 0
KGU1 152202Z 09003KT 08/M08 A302 RMK A01 T00771080  RH  032%=      5-min Rain = 0
KGU1 152203Z 07001KT 08/M08 A302 RMK A01 T00771076  RH  033%=      5-min Rain = 0
KGU1 152204Z 09005KT 08/M07 A302 RMK A01 T00791074  RH  033%=      5-min Rain = 0
KGU1 152205Z 07006KT 08/M08 A302 RMK A01 T00811077  RH  032%=      5-min Rain = 0
KGU1 152206Z 07006G11KT 08/M08 A302 RMK A01 T00801079  RH  032%=      5-min Rain = 0
KGU1 152207Z 11006KT 08/M08 A302 RMK A01 T00791077  RH  033%=      5-min Rain = 0
KGU1 152208Z 07005KT 08/M08 A302 RMK A01 T00791076  RH  033%=      5-min Rain = 0
KGU1 152209Z 06006KT 08/M08 A302 RMK A01 T00791078  RH  032%=      5-min Rain = 0
KGU1 152210Z 06008KT 08/M08 A302 RMK A01 T00791077  RH  033%=      5-min Rain = 0
KGU1 152211Z 05007KT 08/M08 A302 RMK A01 T00791078  RH  032%=      5-min Rain = 0
KGU1 152212Z 05006KT 08/M07 A302 RMK A01 T00791074  RH  033%=      5-min Rain = 0
KGU1 152213Z 06005KT 08/M08 A302 RMK A01 T00811076  RH  033%=      5-min Rain = 0
KGU1 152214Z 05005KT 08/M08 A302 RMK A01 T00811078  RH  032%=      5-min Rain = 0
KGU1 152215Z 06004KT 08/M08 A302 RMK A01 T00811076  RH  032%=      5-min Rain = 0
KGU1 152216Z 07002KT 08/M08 A302 RMK A01 T00821078  RH  032%=      5-min Rain = 0
KGU1 152217Z 07001KT 08/M08 A302 RMK A01 T00821077  RH  032%=      5-min Rain = 0
KGU1 152218Z 06002KT 08/M08 A302 RMK A01 T00821079  RH  031%=      5-min Rain = 0
KGU1 152219Z 03003KT 08/M08 A302 RMK A01 T00811079  RH  031%=      5-min Rain = 0
KGU1 152220Z 08001KT 08/M08 A302 RMK A01 T00811079  RH  032%=      5-min Rain = 0
KGU1 152221Z 08005KT 08/M08 A302 RMK A01 T00821076  RH  032%=      5-min Rain = 0
KGU1 152222Z 09006KT 08/M08 A302 RMK A01 T00821076  RH  032%=      5-min Rain = 0
KGU1 152223Z 08006KT 08/M08 A302 RMK A01 T00821075  RH  033%=      5-min Rain = 0
KGU1 152224Z 06003KT 08/M08 A302 RMK A01 T00821080  RH  031%=      5-min Rain = 0
KGU1 152225Z 11005KT 08/M08 A3019 RMK A01 T00821075  RH  033%=      5-min Rain = 0
KGU1 152226Z 09008KT 08/M08 A3019 RMK A01 T00831075  RH  032%=      5-min Rain = 0
KGU1 152227Z 09006KT 08/M08 A3019 RMK A01 T00821077  RH  032%=      5-min Rain = 0
KGU1 152228Z 10005KT 08/M08 A3019 RMK A01 T00811077  RH  032%=      5-min Rain = 0
KGU1 152229Z 09005KT 08/M07 A3019 RMK A01 T00821074  RH  033%=      5-min Rain = 0
KGU1 152230Z 10002KT 08/M08 A3019 RMK A01 T00831078  RH  032%=      5-min Rain = 0
KGU1 152231Z 10004KT 08/M08 A3019 RMK A01 T00831076  RH  032%=      5-min Rain = 0
KGU1 152232Z 09007KT 08/M08 A3019 RMK A01 T00831078  RH  031%=      5-min Rain = 0
KGU1 152233Z 10005KT 08/M08 A3019 RMK A01 T00811080  RH  031%=      5-min Rain = 0
KGU1 152234Z 09004KT 08/M08 A3019 RMK A01 T00791081  RH  032%=      5-min Rain = 0
KGU1 152235Z 05003KT 08/M08 A3019 RMK A01 T00791082  RH  031%=      5-min Rain = 0
KGU1 152236Z 12003KT 08/M08 A3019 RMK A01 T00781078  RH  032%=      5-min Rain = 0
KGU1 152237Z 12003KT 08/M08 A3019 RMK A01 T00801079  RH  032%=      5-min Rain = 0
KGU1 152238Z 19001KT 08/M08 A3019 RMK A01 T00811081  RH  031%=      5-min Rain = 0
KGU1 152239Z 23001KT 08/M08 A3019 RMK A01 T00821079  RH  031%=      5-min Rain = 0
KGU1 152240Z 22001KT 08/M08 A3019 RMK A01 T00831081  RH  031%=      5-min Rain = 0
KGU1 152241Z 18001KT 08/M08 A3019 RMK A01 T00841077  RH  031%=      5-min Rain = 0
KGU1 152242Z 14003KT 09/M08 A3019 RMK A01 T00871075  RH  031%=      5-min Rain = 0
KGU1 152243Z 14003KT 09/M08 A3019 RMK A01 T00881078  RH  031%=      5-min Rain = 0
KGU1 152244Z 12003KT 09/M08 A3019 RMK A01 T00861078  RH  031%=      5-min Rain = 0
KGU1 152245Z 09003KT 09/M08 A3019 RMK A01 T00851078  RH  031%=      5-min Rain = 0
KGU1 152246Z 11004KT 08/M08 A3019 RMK A01 T00841076  RH  032%=      5-min Rain = 0
KGU1 152247Z 13006KT 08/M07 A3019 RMK A01 T00831074  RH  032%=      5-min Rain = 0
KGU1 152248Z 12006KT 08/M08 A3019 RMK A01 T00841077  RH  032%=      5-min Rain = 0
KGU1 152249Z 14005KT 08/M08 A3019 RMK A01 T00831077  RH  032%=      5-min Rain = 0
KGU1 152250Z 16005KT 08/M08 A3019 RMK A01 T00821078  RH  032%=      5-min Rain = 0
KGU1 152251Z 18006KT 08/M08 A3019 RMK A01 T00821075  RH  032%=      5-min Rain = 0
KGU1 152252Z 16006KT 08/M08 A3019 RMK A01 T00821077  RH  032%=      5-min Rain = 0
KGU1 152253Z 16004KT 08/M08 A3019 RMK A01 T00811081  RH  031%=      5-min Rain = 0
KGU1 152254Z 18002KT 08/M08 A3019 RMK A01 T00801079  RH  032%=      5-min Rain = 0
KGU1 152255Z 19003KT 08/M08 A3019 RMK A01 T00811081  RH  031%=      5-min Rain = 0
KGU1 152256Z 18002KT 08/M08 A3019 RMK A01 T00811077  RH  032%=      5-min Rain = 0
KGU1 152257Z 22001KT 08/M08 A3019 RMK A01 T00831076  RH  032%=      5-min Rain = 0
KGU1 152258Z 18002KT 09/M08 A3019 RMK A01 T00851076  RH  032%=      5-min Rain = 0
KGU1 152259Z 17004KT 09/M08 A3019 RMK A01 T00861076  RH  031%=      5-min Rain = 0
KGU1 152300Z 17003KT 09/M07 A3019 RMK A01 T00861073  RH  032%=      5-min Rain = 0
KGU1 152301Z 17003KT 09/M07 A3019 RMK A01 T00871073  RH  032%=      5-min Rain = 0
KGU1 152302Z 18003KT 09/M08 A3019 RMK A01 T00871076  RH  031%=      5-min Rain = 0
KGU1 152303Z 19002KT 09/M08 A3019 RMK A01 T00861075  RH  031%=      5-min Rain = 0
KGU1 152304Z 18002KT 09/M08 A3019 RMK A01 T00871076  RH  031%=      5-min Rain = 0
KGU1 152305Z 14004KT 09/M08 A3019 RMK A01 T00861077  RH  031%=      5-min Rain = 0
KGU1 152306Z 15005KT 08/M07 A3019 RMK A01 T00841074  RH  032%=      5-min Rain = 0
KGU1 152307Z 14006KT 08/M08 A3019 RMK A01 T00831077  RH  032%=      5-min Rain = 0
KGU1 152308Z 13005KT 08/M08 A3019 RMK A01 T00811077  RH  032%=      5-min Rain = 0
KGU1 152309Z 14003KT 08/M08 A3019 RMK A01 T00811078  RH  032%=      5-min Rain = 0
KGU1 152310Z 13001KT 08/M08 A3019 RMK A01 T00811079  RH  032%=      5-min Rain = 0
KGU1 152311Z 13002KT 08/M08 A3019 RMK A01 T00821077  RH  032%=      5-min Rain = 0
KGU1 152312Z 14002KT 08/M08 A3019 RMK A01 T00821076  RH  032%=      5-min Rain = 0
KGU1 152313Z 15005KT 08/M08 A3019 RMK A01 T00821076  RH  032%=      5-min Rain = 0
KGU1 152314Z 13003KT 08/M08 A3019 RMK A01 T00811080  RH  031%=      5-min Rain = 0
KGU1 152315Z 17004KT 08/M08 A3019 RMK A01 T00811077  RH  032%=      5-min Rain = 0
KGU1 152316Z 17002KT 08/M08 A3019 RMK A01 T00801081  RH  031%=      5-min Rain = 0
KGU1 152317Z 18002KT 08/M08 A3019 RMK A01 T00801080  RH  032%=      5-min Rain = 0
KGU1 152318Z 17003KT 08/M08 A3019 RMK A01 T00801079  RH  032%=      5-min Rain = 0
KGU1 152319Z 19002KT 08/M08 A3019 RMK A01 T00801081  RH  031%=      5-min Rain = 0
KGU1 152320Z 20000KT 08/M08 A3019 RMK A01 T00801080  RH  032%=      5-min Rain = 0
KGU1 152321Z 19001KT 08/M08 A3019 RMK A01 T00811079  RH  032%=      5-min Rain = 0
KGU1 152322Z 19001KT 08/M08 A3019 RMK A01 T00831081  RH  031%=      5-min Rain = 0
KGU1 152323Z 17000KT 08/M08 A3019 RMK A01 T00821081  RH  031%=      5-min Rain = 0
KGU1 152324Z 00000KT 08/M08 A3019 RMK A01 T00831077  RH  032%=      5-min Rain = 0
KGU1 152325Z 17001KT 09/M08 A3019 RMK A01 T00851075  RH  032%=      5-min Rain = 0
KGU1 152326Z 18002KT 09/M08 A3019 RMK A01 T00871079  RH  030%=      5-min Rain = 0
KGU1 152327Z 14004KT 09/M08 A3019 RMK A01 T00861077  RH  031%=      5-min Rain = 0
KGU1 152328Z 14003KT 09/M08 A3019 RMK A01 T00851076  RH  032%=      5-min Rain = 0
KGU1 152329Z 14003KT 08/M08 A3019 RMK A01 T00841077  RH  032%=      5-min Rain = 0
KGU1 152330Z 17002KT 08/M08 A3019 RMK A01 T00831075  RH  032%=      5-min Rain = 0
KGU1 152331Z 17004KT 08/M08 A3019 RMK A01 T00831076  RH  032%=      5-min Rain = 0
KGU1 152332Z 16003KT 08/M08 A3019 RMK A01 T00821077  RH  032%=      5-min Rain = 0
KGU1 152333Z 13003KT 08/M07 A3019 RMK A01 T00821074  RH  032%=      5-min Rain = 0
KGU1 152334Z 12004KT 08/M08 A3019 RMK A01 T00831076  RH  032%=      5-min Rain = 0
KGU1 152335Z 10001KT 08/M08 A3019 RMK A01 T00821079  RH  031%=      5-min Rain = 0
KGU1 152336Z 08000KT 08/M08 A3019 RMK A01 T00821079  RH  031%=      5-min Rain = 0
KGU1 152337Z 02000KT 08/M08 A3019 RMK A01 T00831079  RH  031%=      5-min Rain = 0
KGU1 152338Z 20001KT 08/M08 A3019 RMK A01 T00841077  RH  032%=      5-min Rain = 0
KGU1 152339Z 16002KT 09/M08 A3019 RMK A01 T00861075  RH  032%=      5-min Rain = 0
KGU1 152340Z 12002KT 09/M08 A3019 RMK A01 T00871075  RH  032%=      5-min Rain = 0
KGU1 152341Z 10003KT 09/M07 A3019 RMK A01 T00871074  RH  032%=      5-min Rain = 0
KGU1 152342Z 09006KT 09/M08 A3019 RMK A01 T00851076  RH  032%=      5-min Rain = 0
KGU1 152343Z 09005KT 08/M08 A3019 RMK A01 T00821078  RH  032%=      5-min Rain = 0
KGU1 152344Z 08004KT 08/M08 A3019 RMK A01 T00801078  RH  032%=      5-min Rain = 0
KGU1 152345Z 05003KT 08/M08 A3019 RMK A01 T00791079  RH  032%=      5-min Rain = 0
KGU1 152346Z 08003KT 08/M08 A3019 RMK A01 T00781078  RH  032%=      5-min Rain = 0
KGU1 152347Z 10004KT 08/M08 A3019 RMK A01 T00781078  RH  033%=      5-min Rain = 0
KGU1 152348Z 11004KT 08/M08 A3019 RMK A01 T00771077  RH  033%=      5-min Rain = 0
KGU1 152349Z 11002KT 08/M08 A3019 RMK A01 T00771078  RH  033%=      5-min Rain = 0
KGU1 152350Z 11003KT 08/M08 A3019 RMK A01 T00781077  RH  033%=      5-min Rain = 0
KGU1 152351Z 11004KT 08/M08 A3019 RMK A01 T00781079  RH  032%=      5-min Rain = 0
KGU1 152352Z 11003KT 08/M08 A3019 RMK A01 T00781077  RH  033%=      5-min Rain = 0
KGU1 152353Z 13003KT 08/M08 A3019 RMK A01 T00781076  RH  033%=      5-min Rain = 0
KGU1 152354Z 13002KT 08/M07 A3019 RMK A01 T00781074  RH  034%=      5-min Rain = 0
KGU1 152355Z 13003KT 08/M08 A3019 RMK A01 T00791078  RH  032%=      5-min Rain = 0
KGU1 152356Z 12003KT 08/M08 A3019 RMK A01 T00791078  RH  033%=      5-min Rain = 0
KGU1 152357Z 12004KT 08/M07 A3019 RMK A01 T00781074  RH  034%=      5-min Rain = 0
KGU1 152358Z 12004KT 08/M08 A3019 RMK A01 T00781075  RH  033%=      5-min Rain = 0
KGU1 152359Z 13004KT 08/M07 A3019 RMK A01 T00781073  RH  034%=      5-min Rain = 0
KGU1 160000Z 13005KT 08/M07 A3019 RMK A01 T00771074  RH  034%=      5-min Rain = 0
KGU1 160001Z 10004KT 08/M08 A3019 RMK A01 T00761076  RH  033%=      5-min Rain = 0
KGU1 160002Z 11003KT 08/M08 A3019 RMK A01 T00761076  RH  034%=      5-min Rain = 0
KGU1 160003Z 12002KT 08/M07 A3019 RMK A01 T00751073  RH  035%=      5-min Rain = 0
KGU1 160004Z 13002KT 07/M07 A3019 RMK A01 T00741072  RH  035%=      5-min Rain = 0
KGU1 160005Z 13003KT 07/M08 A3019 RMK A01 T00731077  RH  034%=      5-min Rain = 0
KGU1 160006Z 13003KT 07/M08 A3019 RMK A01 T00711077  RH  034%=      5-min Rain = 0
KGU1 160007Z 10002KT 07/M08 A3019 RMK A01 T00701078  RH  034%=      5-min Rain = 0
KGU1 160008Z 10002KT 07/M08 A3019 RMK A01 T00691078  RH  035%=      5-min Rain = 0
KGU1 160009Z 13003KT 07/M08 A3019 RMK A01 T00681075  RH  036%=      5-min Rain = 0
KGU1 160010Z 13004KT 07/M08 A3019 RMK A01 T00671076  RH  036%=      5-min Rain = 0
KGU1 160011Z 13004KT 07/M08 A3019 RMK A01 T00661075  RH  036%=      5-min Rain = 0
KGU1 160012Z 14003KT 07/M08 A3019 RMK A01 T00651076  RH  036%=      5-min Rain = 0
KGU1 160013Z 14004KT 07/M07 A3019 RMK A01 T00651074  RH  037%=      5-min Rain = 0
KGU1 160014Z 14004KT 06/M08 A3019 RMK A01 T00641075  RH  037%=      5-min Rain = 0
KGU1 160015Z 13004KT 06/M08 A3019 RMK A01 T00641075  RH  037%=      5-min Rain = 0
KGU1 160016Z 13003KT 06/M07 A3019 RMK A01 T00631073  RH  037%=      5-min Rain = 0
KGU1 160017Z 13003KT 06/M07 A3019 RMK A01 T00631071  RH  038%=      5-min Rain = 0
KGU1 160018Z 13003KT 06/M07 A3019 RMK A01 T00621072  RH  038%=      5-min Rain = 0
KGU1 160019Z 13003KT 06/M08 A3019 RMK A01 T00621075  RH  037%=      5-min Rain = 0
KGU1 160020Z 13003KT 06/M07 A3019 RMK A01 T00621072  RH  038%=      5-min Rain = 0
KGU1 160021Z 12003KT 06/M08 A3019 RMK A01 T00611075  RH  037%=      5-min Rain = 0
KGU1 160022Z 13004KT 06/M07 A3019 RMK A01 T00611073  RH  038%=      5-min Rain = 0
KGU1 160023Z 13003KT 06/M07 A3019 RMK A01 T00601072  RH  039%=      5-min Rain = 0
KGU1 160024Z 13003KT 06/M07 A3019 RMK A01 T00601070  RH  039%=      5-min Rain = 0
KGU1 160025Z 14002KT 06/M07 A3019 RMK A01 T00591069  RH  040%=      5-min Rain = 0
KGU1 160026Z 17003KT 06/M07 A3019 RMK A01 T00581067  RH  040%=      5-min Rain = 0
KGU1 160027Z 18003KT 06/M07 A3019 RMK A01 T00581068  RH  040%=      5-min Rain = 0
KGU1 160028Z 17004KT 06/M07 A302 RMK A01 T00571070  RH  040%=      5-min Rain = 0
KGU1 160029Z 17003KT 06/M07 A302 RMK A01 T00571070  RH  040%=      5-min Rain = 0
KGU1 160030Z 17003KT 06/M07 A302 RMK A01 T00571070  RH  040%=      5-min Rain = 0
KGU1 160031Z 16003KT 06/M07 A302 RMK A01 T00571070  RH  040%=      5-min Rain = 0
KGU1 160032Z 17003KT 06/M07 A302 RMK A01 T00561070  RH  040%=      5-min Rain = 0
KGU1 160033Z 18002KT 06/M07 A302 RMK A01 T00561070  RH  040%=      5-min Rain = 0
KGU1 160034Z 17001KT 06/M07 A302 RMK A01 T00561068  RH  041%=      5-min Rain = 0
KGU1 160035Z 16001KT 06/M07 A302 RMK A01 T00561068  RH  041%=      5-min Rain = 0
KGU1 160036Z 15002KT 06/M07 A302 RMK A01 T00551072  RH  040%=      5-min Rain = 0
KGU1 160037Z 20001KT 06/M07 A302 RMK A01 T00551071  RH  040%=      5-min Rain = 0
KGU1 160038Z 20000KT 05/M07 A302 RMK A01 T00541068  RH  041%=      5-min Rain = 0
KGU1 160039Z 29001KT 05/M07 A302 RMK A01 T00531066  RH  042%=      5-min Rain = 0
KGU1 160040Z 30001KT 05/M07 A3019 RMK A01 T00511065  RH  043%=      5-min Rain = 0
KGU1 160041Z 30000KT 05/M06 A3019 RMK A01 T00501064  RH  044%=      5-min Rain = 0
KGU1 160042Z 29000KT 05/M07 A3019 RMK A01 T00491066  RH  043%=      5-min Rain = 0
KGU1 160043Z 28001KT 05/M06 A3019 RMK A01 T00491064  RH  044%=      5-min Rain = 0
KGU1 160044Z 29002KT 05/M07 A3019 RMK A01 T00481065  RH  044%=      5-min Rain = 0
KGU1 160045Z 30002KT 05/M06 A3019 RMK A01 T00481063  RH  045%=      5-min Rain = 0
KGU1 160046Z 30001KT 05/M06 A3019 RMK A01 T00471063  RH  045%=      5-min Rain = 0
KGU1 160047Z 31002KT 05/M06 A3019 RMK A01 T00471062  RH  046%=      5-min Rain = 0
KGU1 160048Z 32002KT 05/M06 A3019 RMK A01 T00471060  RH  046%=      5-min Rain = 0
KGU1 160049Z 32001KT 05/M06 A3019 RMK A01 T00461059  RH  047%=      5-min Rain = 0
KGU1 160050Z 32001KT 05/M06 A3019 RMK A01 T00461058  RH  047%=      5-min Rain = 0
KGU1 160051Z 32002KT 05/M06 A3019 RMK A01 T00461057  RH  048%=      5-min Rain = 0
KGU1 160052Z 33002KT 04/M06 A3019 RMK A01 T00441056  RH  048%=      5-min Rain = 0
KGU1 160053Z 00000KT 05/M06 A3019 RMK A01 T00451062  RH  046%=      5-min Rain = 0
KGU1 160054Z 30001KT 05/M06 A3019 RMK A01 T00451060  RH  047%=      5-min Rain = 0
KGU1 160055Z 29001KT 04/M06 A3019 RMK A01 T00431059  RH  048%=      5-min Rain = 0
KGU1 160056Z 29002KT 04/M06 A3019 RMK A01 T00421059  RH  048%=      5-min Rain = 0
KGU1 160057Z 31002KT 04/M06 A3019 RMK A01 T00411059  RH  049%=      5-min Rain = 0
KGU1 160058Z 30002KT 04/M06 A3019 RMK A01 T00401058  RH  050%=      5-min Rain = 0
KGU1 160059Z 29003KT 04/M06 A3019 RMK A01 T00381057  RH  050%=      5-min Rain = 0
KGU1 160100Z 29003KT 04/M06 A3019 RMK A01 T00371056  RH  051%=      5-min Rain = 0
KGU1 160101Z 29002KT 04/M06 A3019 RMK A01 T00361057  RH  051%=      5-min Rain = 0
KGU1 160102Z 29002KT 04/M06 A302 RMK A01 T00351056  RH  052%=      5-min Rain = 0
KGU1 160103Z 28002KT 03/M06 A302 RMK A01 T00341056  RH  052%=      5-min Rain = 0
KGU1 160104Z 28002KT 03/M06 A302 RMK A01 T00341058  RH  052%=      5-min Rain = 0
KGU1 160105Z 27002KT 03/M06 A302 RMK A01 T00341058  RH  051%=      5-min Rain = 0
KGU1 160106Z 26002KT 03/M06 A302 RMK A01 T00331059  RH  051%=      5-min Rain = 0
KGU1 160107Z 26002KT 03/M06 A302 RMK A01 T00331060  RH  051%=      5-min Rain = 0
KGU1 160108Z 26002KT 03/M06 A3019 RMK A01 T00331059  RH  051%=      5-min Rain = 0
KGU1 160109Z 27002KT 03/M06 A3019 RMK A01 T00321059  RH  052%=      5-min Rain = 0
KGU1 160110Z 27003KT 03/M06 A3019 RMK A01 T00321059  RH  052%=      5-min Rain = 0
KGU1 160111Z 27002KT 03/M06 A3019 RMK A01 T00311059  RH  052%=      5-min Rain = 0
KGU1 160112Z 28003KT 03/M06 A3019 RMK A01 T00311059  RH  052%=      5-min Rain = 0
KGU1 160113Z 28003KT 03/M06 A3019 RMK A01 T00311059  RH  052%=      5-min Rain = 0
KGU1 160114Z 28003KT 03/M06 A3019 RMK A01 T00311058  RH  052%=      5-min Rain = 0
KGU1 160115Z 28003KT 03/M06 A3019 RMK A01 T00311058  RH  053%=      5-min Rain = 0
KGU1 160116Z 29003KT 03/M06 A3019 RMK A01 T00301058  RH  053%=      5-min Rain = 0
KGU1 160117Z 29004KT 03/M06 A3019 RMK A01 T00301058  RH  053%=      5-min Rain = 0
KGU1 160118Z 29004KT 03/M06 A3019 RMK A01 T00291058  RH  053%=      5-min Rain = 0
KGU1 160119Z 29004KT 03/M06 A3019 RMK A01 T00291058  RH  054%=      5-min Rain = 0
KGU1 160120Z 29004KT 03/M06 A3019 RMK A01 T00281058  RH  054%=      5-min Rain = 0
KGU1 160121Z 29004KT 03/M06 A3019 RMK A01 T00281058  RH  054%=      5-min Rain = 0
KGU1 160122Z 29004KT 03/M06 A3019 RMK A01 T00271058  RH  054%=      5-min Rain = 0
KGU1 160123Z 29004KT 03/M06 A302 RMK A01 T00271058  RH  054%=      5-min Rain = 0
KGU1 160124Z 29004KT 03/M06 A302 RMK A01 T00271058  RH  054%=      5-min Rain = 0
KGU1 160125Z 29004KT 03/M06 A302 RMK A01 T00261058  RH  055%=      5-min Rain = 0
KGU1 160126Z 29004KT 03/M06 A302 RMK A01 T00261058  RH  055%=      5-min Rain = 0
KGU1 160127Z 29004KT 03/M06 A302 RMK A01 T00251057  RH  055%=      5-min Rain = 0
KGU1 160128Z 29004KT 03/M06 A302 RMK A01 T00251058  RH  055%=      5-min Rain = 0
KGU1 160129Z 29004KT 03/M06 A302 RMK A01 T00251059  RH  055%=      5-min Rain = 0
KGU1 160130Z 29004KT 03/M06 A302 RMK A01 T00251059  RH  054%=      5-min Rain = 0
KGU1 160131Z 30004KT 03/M06 A302 RMK A01 T00251058  RH  055%=      5-min Rain = 0
KGU1 160132Z 30004KT 03/M06 A302 RMK A01 T00251058  RH  055%=      5-min Rain = 0
KGU1 160133Z 30005KT 03/M06 A302 RMK A01 T00251056  RH  056%=      5-min Rain = 0
KGU1 160134Z 31004KT 03/M06 A302 RMK A01 T00251055  RH  056%=      5-min Rain = 0
KGU1 160135Z 30004KT 03/M05 A302 RMK A01 T00251053  RH  057%=      5-min Rain = 0
KGU1 160136Z 30004KT 03/M05 A302 RMK A01 T00251053  RH  057%=      5-min Rain = 0
KGU1 160137Z 31003KT 03/M05 A302 RMK A01 T00251053  RH  057%=      5-min Rain = 0
KGU1 160138Z 31003KT 03/M05 A302 RMK A01 T00251052  RH  057%=      5-min Rain = 0
KGU1 160139Z 31004KT 03/M05 A302 RMK A01 T00251052  RH  057%=      5-min Rain = 0
KGU1 160140Z 32004KT 03/M05 A302 RMK A01 T00251052  RH  057%=      5-min Rain = 0
KGU1 160141Z 33003KT 03/M05 A302 RMK A01 T00261054  RH  056%=      5-min Rain = 0
KGU1 160142Z 32004KT 03/M05 A302 RMK A01 T00271052  RH  057%=      5-min Rain = 0
KGU1 160143Z 32003KT 03/M05 A302 RMK A01 T00261051  RH  057%=      5-min Rain = 0
KGU1 160144Z 33003KT 03/M05 A302 RMK A01 T00261052  RH  057%=      5-min Rain = 0
KGU1 160145Z 33003KT 03/M05 A302 RMK A01 T00261053  RH  057%=      5-min Rain = 0
KGU1 160146Z 34002KT 03/M06 A302 RMK A01 T00271055  RH  055%=      5-min Rain = 0
KGU1 160147Z 33001KT 03/M06 A302 RMK A01 T00271055  RH  055%=      5-min Rain = 0
KGU1 160148Z 33002KT 03/M06 A302 RMK A01 T00281057  RH  054%=      5-min Rain = 0
KGU1 160149Z 31002KT 03/M06 A302 RMK A01 T00291058  RH  054%=      5-min Rain = 0
KGU1 160150Z 30003KT 03/M06 A302 RMK A01 T00291058  RH  054%=      5-min Rain = 0
KGU1 160151Z 30004KT 03/M06 A302 RMK A01 T00291058  RH  053%=      5-min Rain = 0
KGU1 160152Z 31004KT 03/M06 A302 RMK A01 T00291058  RH  054%=      5-min Rain = 0
KGU1 160153Z 31004KT 03/M06 A302 RMK A01 T00281058  RH  053%=      5-min Rain = 0
KGU1 160154Z 31004KT 03/M06 A302 RMK A01 T00281059  RH  053%=      5-min Rain = 0
KGU1 160155Z 31004KT 03/M06 A302 RMK A01 T00291060  RH  053%=      5-min Rain = 0
KGU1 160156Z 31004KT 03/M06 A302 RMK A01 T00291060  RH  052%=      5-min Rain = 0
KGU1 160157Z 31003KT 03/M06 A302 RMK A01 T00311061  RH  052%=      5-min Rain = 0
KGU1 160158Z 31003KT 03/M06 A302 RMK A01 T00311060  RH  052%=      5-min Rain = 0
KGU1 160159Z 30004KT 03/M06 A302 RMK A01 T00311059  RH  052%=      5-min Rain = 0
KGU1 160200Z 31004KT 03/M06 A302 RMK A01 T00311059  RH  052%=      5-min Rain = 0
KGU1 160201Z 30003KT 03/M06 A302 RMK A01 T00311060  RH  052%=      5-min Rain = 0
KGU1 160202Z 30003KT 03/M06 A302 RMK A01 T00311060  RH  052%=      5-min Rain = 0
KGU1 160203Z 30003KT 03/M06 A302 RMK A01 T00311058  RH  053%=      5-min Rain = 0
KGU1 160204Z 29003KT 03/M06 A302 RMK A01 T00311059  RH  052%=      5-min Rain = 0
KGU1 160205Z 29003KT 03/M06 A302 RMK A01 T00311058  RH  052%=      5-min Rain = 0
KGU1 160206Z 29003KT 03/M06 A302 RMK A01 T00311058  RH  053%=      5-min Rain = 0
KGU1 160207Z 29003KT 03/M06 A302 RMK A01 T00301057  RH  053%=      5-min Rain = 0
KGU1 160208Z 29004KT 03/M06 A302 RMK A01 T00291059  RH  053%=      5-min Rain = 0
KGU1 160209Z 29004KT 03/M06 A302 RMK A01 T00301060  RH  052%=      5-min Rain = 0
KGU1 160210Z 30004KT 03/M06 A302 RMK A01 T00301059  RH  052%=      5-min Rain = 0
KGU1 160211Z 30005KT 03/M06 A302 RMK A01 T00301060  RH  052%=      5-min Rain = 0
KGU1 160212Z 30005KT 03/M06 A302 RMK A01 T00301060  RH  052%=      5-min Rain = 0
KGU1 160213Z 29005KT 03/M06 A302 RMK A01 T00301059  RH  053%=      5-min Rain = 0
KGU1 160214Z 29005KT 03/M06 A302 RMK A01 T00291058  RH  053%=      5-min Rain = 0
KGU1 160215Z 29006KT 03/M06 A302 RMK A01 T00291060  RH  052%=      5-min Rain = 0
KGU1 160216Z 29005KT 03/M06 A302 RMK A01 T00311060  RH  052%=      5-min Rain = 0
KGU1 160217Z 30005KT 03/M06 A302 RMK A01 T00311058  RH  053%=      5-min Rain = 0
KGU1 160218Z 30004KT 03/M06 A302 RMK A01 T00311060  RH  052%=      5-min Rain = 0
KGU1 160219Z 30004KT 03/M06 A302 RMK A01 T00331064  RH  050%=      5-min Rain = 0
KGU1 160220Z 29005KT 03/M06 A302 RMK A01 T00341061  RH  051%=      5-min Rain = 0
KGU1 160221Z 30004KT 03/M06 A302 RMK A01 T00341059  RH  051%=      5-min Rain = 0
KGU1 160222Z 32002KT 03/M06 A302 RMK A01 T00331058  RH  052%=      5-min Rain = 0
KGU1 160223Z 30003KT 03/M06 A302 RMK A01 T00331060  RH  051%=      5-min Rain = 0
KGU1 160224Z 31004KT 03/M06 A302 RMK A01 T00331059  RH  051%=      5-min Rain = 0
KGU1 160225Z 31004KT 03/M06 A302 RMK A01 T00331059  RH  052%=      5-min Rain = 0
KGU1 160226Z 30004KT 03/M06 A302 RMK A01 T00331060  RH  051%=      5-min Rain = 0
KGU1 160227Z 30004KT 03/M06 A302 RMK A01 T00331059  RH  051%=      5-min Rain = 0
KGU1 160228Z 30005KT 03/M06 A302 RMK A01 T00331059  RH  052%=      5-min Rain = 0
KGU1 160229Z 30006KT 03/M06 A302 RMK A01 T00311058  RH  053%=      5-min Rain = 0
KGU1 160230Z 30005KT 03/M06 A302 RMK A01 T00311058  RH  053%=      5-min Rain = 0
KGU1 160231Z 30006KT 03/M06 A302 RMK A01 T00301059  RH  053%=      5-min Rain = 0
KGU1 160232Z 30006KT 03/M06 A302 RMK A01 T00301058  RH  053%=      5-min Rain = 0
KGU1 160233Z 30006KT 03/M06 A302 RMK A01 T00301059  RH  053%=      5-min Rain = 0
KGU1 160234Z 30006KT 03/M06 A302 RMK A01 T00301059  RH  053%=      5-min Rain = 0
KGU1 160235Z 30004KT 03/M06 A302 RMK A01 T00291058  RH  053%=      5-min Rain = 0
KGU1 160236Z 30005KT 03/M06 A302 RMK A01 T00291058  RH  054%=      5-min Rain = 0
KGU1 160237Z 29006KT 03/M06 A302 RMK A01 T00281058  RH  054%=      5-min Rain = 0
KGU1 160238Z 30006KT 03/M06 A302 RMK A01 T00291059  RH  053%=      5-min Rain = 0
KGU1 160239Z 30006KT 03/M06 A302 RMK A01 T00281059  RH  053%=      5-min Rain = 0
KGU1 160240Z 30006KT 03/M06 A302 RMK A01 T00291059  RH  053%=      5-min Rain = 0
KGU1 160241Z 30005KT 03/M06 A302 RMK A01 T00281059  RH  053%=      5-min Rain = 0
KGU1 160242Z 30006KT 03/M06 A302 RMK A01 T00301058  RH  053%=      5-min Rain = 0
KGU1 160243Z 30006KT 03/M06 A302 RMK A01 T00301060  RH  052%=      5-min Rain = 0
KGU1 160244Z 31006KT 03/M06 A302 RMK A01 T00311060  RH  052%=      5-min Rain = 0
KGU1 160245Z 31005KT 03/M06 A302 RMK A01 T00311062  RH  051%=      5-min Rain = 0
KGU1 160246Z 30004KT 03/M06 A302 RMK A01 T00331062  RH  050%=      5-min Rain = 0
KGU1 160247Z 31005KT 03/M06 A302 RMK A01 T00321061  RH  051%=      5-min Rain = 0
KGU1 160248Z 31007KT 03/M06 A302 RMK A01 T00321061  RH  051%=      5-min Rain = 0
KGU1 160249Z 31007KT 03/M06 A302 RMK A01 T00321063  RH  050%=      5-min Rain = 0
KGU1 160250Z 30005KT 03/M06 A302 RMK A01 T00331063  RH  050%=      5-min Rain = 0
KGU1 160251Z 30005KT 03/M06 A302 RMK A01 T00331062  RH  050%=      5-min Rain = 0
KGU1 160252Z 30006KT 03/M06 A302 RMK A01 T00321062  RH  051%=      5-min Rain = 0
KGU1 160253Z 31004KT 03/M06 A302 RMK A01 T00321061  RH  051%=      5-min Rain = 0
KGU1 160254Z 31004KT 03/M06 A302 RMK A01 T00311060  RH  052%=      5-min Rain = 0
KGU1 160255Z 32003KT 03/M06 A302 RMK A01 T00301062  RH  051%=      5-min Rain = 0
KGU1 160256Z 31003KT 03/M06 A302 RMK A01 T00311063  RH  051%=      5-min Rain = 0
KGU1 160257Z 30004KT 03/M06 A3019 RMK A01 T00321062  RH  051%=      5-min Rain = 0
KGU1 160258Z 30005KT 03/M06 A3019 RMK A01 T00311062  RH  051%=      5-min Rain = 0
KGU1 160259Z 30004KT 03/M06 A3019 RMK A01 T00301062  RH  051%=      5-min Rain = 0
KGU1 160300Z 30003KT 03/M06 A3019 RMK A01 T00301062  RH  051%=      5-min Rain = 0
KGU1 160301Z 30004KT 03/M06 A3019 RMK A01 T00311063  RH  051%=      5-min Rain = 0
KGU1 160302Z 30006KT 03/M06 A3019 RMK A01 T00301062  RH  051%=      5-min Rain = 0
KGU1 160303Z 28005KT 03/M06 A3019 RMK A01 T00311062  RH  051%=      5-min Rain = 0
KGU1 160304Z 29003KT 03/M06 A3019 RMK A01 T00301062  RH  051%=      5-min Rain = 0
KGU1 160305Z 30004KT 03/M06 A3019 RMK A01 T00301063  RH  051%=      5-min Rain = 0
KGU1 160306Z 31004KT 03/M06 A3019 RMK A01 T00311064  RH  050%=      5-min Rain = 0
KGU1 160307Z 30004KT 03/M06 A3019 RMK A01 T00311064  RH  050%=      5-min Rain = 0
KGU1 160308Z 30002KT 03/M07 A3019 RMK A01 T00311065  RH  050%=      5-min Rain = 0
KGU1 160309Z 31003KT 03/M06 A3019 RMK A01 T00311064  RH  050%=      5-min Rain = 0
KGU1 160310Z 30004KT 03/M06 A3019 RMK A01 T00301063  RH  051%=      5-min Rain = 0
KGU1 160311Z 29004KT 03/M06 A3019 RMK A01 T00291063  RH  051%=      5-min Rain = 0
KGU1 160312Z 31004KT 03/M06 A3019 RMK A01 T00281064  RH  051%=      5-min Rain = 0
KGU1 160313Z 30004KT 03/M06 A3019 RMK A01 T00291064  RH  051%=      5-min Rain = 0
KGU1 160314Z 30005KT 03/M06 A3019 RMK A01 T00291063  RH  051%=      5-min Rain = 0
KGU1 160315Z 30003KT 03/M06 A3019 RMK A01 T00291063  RH  052%=      5-min Rain = 0
KGU1 160316Z 30004KT 03/M06 A3019 RMK A01 T00281061  RH  052%=      5-min Rain = 0
KGU1 160317Z 31003KT 03/M07 A3019 RMK A01 T00271065  RH  051%=      5-min Rain = 0
KGU1 160318Z 31003KT 03/M07 A3019 RMK A01 T00311068  RH  049%=      5-min Rain = 0
KGU1 160319Z 31004KT 03/M07 A3019 RMK A01 T00341067  RH  048%=      5-min Rain = 0
KGU1 160320Z 31005KT 04/M07 A3019 RMK A01 T00351067  RH  048%=      5-min Rain = 0
KGU1 160321Z 30004KT 04/M07 A3019 RMK A01 T00361067  RH  047%=      5-min Rain = 0
KGU1 160322Z 29003KT 04/M07 A3019 RMK A01 T00371066  RH  048%=      5-min Rain = 0
KGU1 160323Z 30003KT 04/M06 A3019 RMK A01 T00351064  RH  049%=      5-min Rain = 0
KGU1 160324Z 30004KT 03/M06 A3019 RMK A01 T00331063  RH  050%=      5-min Rain = 0
KGU1 160325Z 30003KT 03/M06 A3019 RMK A01 T00311062  RH  051%=      5-min Rain = 0
KGU1 160326Z 29003KT 03/M06 A3019 RMK A01 T00291062  RH  052%=      5-min Rain = 0
KGU1 160327Z 29004KT 03/M06 A3019 RMK A01 T00271061  RH  053%=      5-min Rain = 0
KGU1 160328Z 30004KT 03/M06 A3019 RMK A01 T00251061  RH  054%=      5-min Rain = 0
KGU1 160329Z 30003KT 02/M06 A3019 RMK A01 T00241060  RH  054%=      5-min Rain = 0
KGU1 160330Z 29003KT 02/M06 A3019 RMK A01 T00241063  RH  053%=      5-min Rain = 0
KGU1 160331Z 29003KT 03/M06 A3019 RMK A01 T00251061  RH  054%=      5-min Rain = 0
KGU1 160332Z 29004KT 02/M06 A3019 RMK A01 T00241062  RH  054%=      5-min Rain = 0
KGU1 160333Z 29004KT 02/M06 A3019 RMK A01 T00231063  RH  053%=      5-min Rain = 0
KGU1 160334Z 28004KT 02/M06 A3019 RMK A01 T00231062  RH  054%=      5-min Rain = 0
KGU1 160335Z 27004KT 02/M06 A3019 RMK A01 T00231063  RH  054%=      5-min Rain = 0
KGU1 160336Z 27004KT 02/M06 A3019 RMK A01 T00231062  RH  054%=      5-min Rain = 0
KGU1 160337Z 27004KT 02/M06 A3019 RMK A01 T00221062  RH  054%=      5-min Rain = 0
KGU1 160338Z 27004KT 02/M06 A3019 RMK A01 T00221061  RH  055%=      5-min Rain = 0
KGU1 160339Z 28004KT 02/M06 A3019 RMK A01 T00211061  RH  055%=      5-min Rain = 0
KGU1 160340Z 27005KT 02/M06 A3019 RMK A01 T00201061  RH  056%=      5-min Rain = 0
KGU1 160341Z 27004KT 02/M06 A302 RMK A01 T00201060  RH  056%=      5-min Rain = 0
KGU1 160342Z 27005KT 02/M06 A302 RMK A01 T00191060  RH  056%=      5-min Rain = 0
KGU1 160343Z 27005KT 02/M06 A302 RMK A01 T00191060  RH  057%=      5-min Rain = 0
KGU1 160344Z 28005KT 02/M06 A302 RMK A01 T00181060  RH  057%=      5-min Rain = 0
KGU1 160345Z 28005KT 02/M06 A3019 RMK A01 T00171060  RH  057%=      5-min Rain = 0
KGU1 160346Z 28005KT 02/M06 A3019 RMK A01 T00161060  RH  058%=      5-min Rain = 0
KGU1 160347Z 28005KT 02/M06 A3019 RMK A01 T00151060  RH  058%=      5-min Rain = 0
KGU1 160348Z 28005KT 01/M06 A3019 RMK A01 T00141060  RH  058%=      5-min Rain = 0
KGU1 160349Z 29005KT 01/M06 A3019 RMK A01 T00141060  RH  059%=      5-min Rain = 0
KGU1 160350Z 28005KT 01/M06 A3019 RMK A01 T00141059  RH  059%=      5-min Rain = 0
KGU1 160351Z 29005KT 01/M06 A3019 RMK A01 T00131059  RH  059%=      5-min Rain = 0
KGU1 160352Z 29006KT 01/M06 A3019 RMK A01 T00131059  RH  059%=      5-min Rain = 0
KGU1 160353Z 28006KT 01/M06 A3019 RMK A01 T00131059  RH  060%=      5-min Rain = 0
KGU1 160354Z 28006KT 01/M06 A3019 RMK A01 T00121059  RH  060%=      5-min Rain = 0
KGU1 160355Z 28006KT 01/M06 A3019 RMK A01 T00121058  RH  060%=      5-min Rain = 0
KGU1 160356Z 28005KT 01/M06 A3019 RMK A01 T00111059  RH  060%=      5-min Rain = 0
KGU1 160357Z 28005KT 01/M06 A3019 RMK A01 T00111059  RH  060%=      5-min Rain = 0
KGU1 160358Z 28005KT 01/M06 A3019 RMK A01 T00111061  RH  059%=      5-min Rain = 0
KGU1 160359Z 28005KT 01/M06 A3019 RMK A01 T00111062  RH  059%=      5-min Rain = 0
KGU1 160400Z 28005KT 01/M06 A3019 RMK A01 T00101062  RH  059%=      5-min Rain = 0
KGU1 160401Z 28005KT 01/M06 A3019 RMK A01 T00091061  RH  060%=      5-min Rain = 0
KGU1 160402Z 28005KT 01/M06 A3019 RMK A01 T00091061  RH  060%=      5-min Rain = 0
KGU1 160403Z 28005KT 01/M06 A3019 RMK A01 T00091061  RH  060%=      5-min Rain = 0
KGU1 160404Z 28005KT 01/M06 A3019 RMK A01 T00091061  RH  060%=      5-min Rain = 0
KGU1 160405Z 28004KT 01/M06 A3019 RMK A01 T00091062  RH  060%=      5-min Rain = 0
KGU1 160406Z 27004KT 01/M06 A3019 RMK A01 T00091062  RH  060%=      5-min Rain = 0
KGU1 160407Z 27004KT 01/M06 A3019 RMK A01 T00091062  RH  060%=      5-min Rain = 0
KGU1 160408Z 27003KT 01/M06 A3019 RMK A01 T00091062  RH  060%=      5-min Rain = 0
KGU1 160409Z 26003KT 01/M06 A3019 RMK A01 T00101062  RH  059%=      5-min Rain = 0
KGU1 160410Z 25003KT 01/M06 A3019 RMK A01 T00101063  RH  059%=      5-min Rain = 0
KGU1 160411Z 26003KT 01/M06 A3019 RMK A01 T00101063  RH  059%=      5-min Rain = 0
KGU1 160412Z 26003KT 01/M06 A3019 RMK A01 T00111064  RH  058%=      5-min Rain = 0
KGU1 160413Z 26003KT 01/M06 A3019 RMK A01 T00111064  RH  058%=      5-min Rain = 0
KGU1 160414Z 26004KT 01/M06 A3019 RMK A01 T00111064  RH  058%=      5-min Rain = 0
KGU1 160415Z 26003KT 01/M06 A3019 RMK A01 T00121064  RH  058%=      5-min Rain = 0
KGU1 160416Z 26003KT 01/M06 A3019 RMK A01 T00121064  RH  058%=      5-min Rain = 0
KGU1 160417Z 27005KT 01/M06 A3019 RMK A01 T00131063  RH  058%=      5-min Rain = 0
KGU1 160418Z 28005KT 01/M06 A3019 RMK A01 T00131061  RH  058%=      5-min Rain = 0
KGU1 160419Z 28004KT 01/M06 A3019 RMK A01 T00131061  RH  059%=      5-min Rain = 0
KGU1 160420Z 27003KT 01/M06 A3019 RMK A01 T00121061  RH  059%=      5-min Rain = 0
KGU1 160421Z 27004KT 01/M06 A3019 RMK A01 T00121061  RH  059%=      5-min Rain = 0
KGU1 160422Z 24003KT 01/M06 A3019 RMK A01 T00121062  RH  058%=      5-min Rain = 0
KGU1 160423Z 25003KT 01/M06 A3019 RMK A01 T00121062  RH  058%=      5-min Rain = 0
KGU1 160424Z 24003KT 01/M06 A3019 RMK A01 T00111063  RH  058%=      5-min Rain = 0
KGU1 160425Z 23003KT 01/M06 A3019 RMK A01 T00111063  RH  058%=      5-min Rain = 0
KGU1 160426Z 24003KT 01/M06 A3019 RMK A01 T00101063  RH  059%=      5-min Rain = 0
KGU1 160427Z 22003KT 01/M06 A3019 RMK A01 T00101063  RH  059%=      5-min Rain = 0
KGU1 160428Z 22002KT 01/M06 A3019 RMK A01 T00091064  RH  059%=      5-min Rain = 0
KGU1 160429Z 22002KT 01/M06 A3019 RMK A01 T00101064  RH  058%=      5-min Rain = 0
KGU1 160430Z 24002KT 01/M06 A3019 RMK A01 T00091064  RH  059%=      5-min Rain = 0
KGU1 160431Z 26003KT 01/M06 A3019 RMK A01 T00081064  RH  059%=      5-min Rain = 0
KGU1 160432Z 26003KT 01/M06 A3019 RMK A01 T00071063  RH  060%=      5-min Rain = 0
KGU1 160433Z 27004KT 01/M06 A3019 RMK A01 T00061062  RH  061%=      5-min Rain = 0
KGU1 160434Z 27004KT 01/M06 A3019 RMK A01 T00051062  RH  061%=      5-min Rain = 0
KGU1 160435Z 27004KT 01/M06 A3018 RMK A01 T00051062  RH  061%=      5-min Rain = 0
KGU1 160436Z 27004KT 01/M06 A3018 RMK A01 T00051061  RH  062%=      5-min Rain = 0
KGU1 160437Z 28004KT 01/M06 A3018 RMK A01 T00051062  RH  062%=      5-min Rain = 0
KGU1 160438Z 28003KT 01/M06 A3018 RMK A01 T00061061  RH  062%=      5-min Rain = 0
KGU1 160439Z 29004KT 01/M06 A3018 RMK A01 T00061060  RH  062%=      5-min Rain = 0
KGU1 160440Z 28004KT 01/M06 A3018 RMK A01 T00071060  RH  062%=      5-min Rain = 0
KGU1 160441Z 29004KT 01/M06 A3018 RMK A01 T00061060  RH  062%=      5-min Rain = 0
KGU1 160442Z 30003KT 01/M06 A3018 RMK A01 T00061059  RH  062%=      5-min Rain = 0
KGU1 160443Z 30003KT 01/M06 A3018 RMK A01 T00061059  RH  062%=      5-min Rain = 0
KGU1 160444Z 30004KT 01/M06 A3018 RMK A01 T00061060  RH  062%=      5-min Rain = 0
KGU1 160445Z 31004KT 01/M06 A3018 RMK A01 T00051057  RH  064%=      5-min Rain = 0
KGU1 160446Z 31003KT 01/M06 A3018 RMK A01 T00051057  RH  064%=      5-min Rain = 0
KGU1 160447Z 31003KT 01/M06 A3018 RMK A01 T00061056  RH  064%=      5-min Rain = 0
KGU1 160448Z 30003KT 01/M06 A3018 RMK A01 T00051055  RH  065%=      5-min Rain = 0
KGU1 160449Z 30004KT 00/M06 A3018 RMK A01 T00041055  RH  065%=      5-min Rain = 0
KGU1 160450Z 30004KT 00/M06 A3018 RMK A01 T00041056  RH  065%=      5-min Rain = 0
KGU1 160451Z 31003KT 01/M06 A3018 RMK A01 T00061058  RH  063%=      5-min Rain = 0
KGU1 160452Z 30004KT 01/M06 A3018 RMK A01 T00071057  RH  063%=      5-min Rain = 0
KGU1 160453Z 28004KT 01/M06 A3018 RMK A01 T00061056  RH  064%=      5-min Rain = 0
KGU1 160454Z 27004KT 00/M06 A3018 RMK A01 T00041057  RH  064%=      5-min Rain = 0
KGU1 160455Z 28004KT 00/M06 A3018 RMK A01 T00041058  RH  064%=      5-min Rain = 0
KGU1 160456Z 28004KT 01/M06 A3018 RMK A01 T00051058  RH  063%=      5-min Rain = 0
KGU1 160457Z 28004KT 01/M06 A3018 RMK A01 T00051059  RH  063%=      5-min Rain = 0
KGU1 160458Z 28005KT 01/M06 A3018 RMK A01 T00051060  RH  062%=      5-min Rain = 0
KGU1 160459Z 28005KT 01/M06 A3018 RMK A01 T00061061  RH  062%=      5-min Rain = 0
KGU1 160500Z 29004KT 01/M06 A3018 RMK A01 T00061060  RH  062%=      5-min Rain = 0
KGU1 160501Z 29006KT 01/M06 A3018 RMK A01 T00051059  RH  063%=      5-min Rain = 0
KGU1 160502Z 28004KT 00/M06 A3018 RMK A01 T00041058  RH  064%=      5-min Rain = 0
KGU1 160503Z 28004KT 00/M06 A3018 RMK A01 T00031058  RH  064%=      5-min Rain = 0
KGU1 160504Z 28003KT 01/M06 A3018 RMK A01 T00051060  RH  063%=      5-min Rain = 0
KGU1 160505Z 27004KT 01/M06 A3018 RMK A01 T00051060  RH  062%=      5-min Rain = 0
KGU1 160506Z 25004KT 01/M06 A3018 RMK A01 T00051061  RH  062%=      5-min Rain = 0
KGU1 160507Z 24004KT 01/M06 A3018 RMK A01 T00051061  RH  062%=      5-min Rain = 0
KGU1 160508Z 24003KT 00/M06 A3018 RMK A01 T00031062  RH  062%=      5-min Rain = 0
KGU1 160509Z 24004KT 00/M06 A3018 RMK A01 T00021062  RH  063%=      5-min Rain = 0
KGU1 160510Z 23004KT 00/M06 A3018 RMK A01 T00021062  RH  063%=      5-min Rain = 0
KGU1 160511Z 23004KT 00/M06 A3018 RMK A01 T00011062  RH  063%=      5-min Rain = 0
KGU1 160512Z 23004KT 00/M06 A3018 RMK A01 T00011063  RH  062%=      5-min Rain = 0
KGU1 160513Z 23005KT 01/M07 A3018 RMK A01 T00051066  RH  060%=      5-min Rain = 0
KGU1 160514Z 23007KT 01/M07 A3018 RMK A01 T00121068  RH  056%=      5-min Rain = 0
KGU1 160515Z 22007KT 02/M07 A3018 RMK A01 T00191068  RH  053%=      5-min Rain = 0
KGU1 160516Z 23006KT 02/M07 A3018 RMK A01 T00241069  RH  051%=      5-min Rain = 0
KGU1 160517Z 22004KT 03/M07 A3018 RMK A01 T00281067  RH  050%=      5-min Rain = 0
KGU1 160518Z 22005KT 03/M07 A3018 RMK A01 T00291067  RH  050%=      5-min Rain = 0
KGU1 160519Z 22006KT 03/M07 A3018 RMK A01 T00301067  RH  050%=      5-min Rain = 0
KGU1 160520Z 22005KT 03/M07 A3018 RMK A01 T00301067  RH  049%=      5-min Rain = 0
KGU1 160521Z 23005KT 03/M07 A3018 RMK A01 T00311068  RH  049%=      5-min Rain = 0
KGU1 160522Z 23006KT 03/M07 A3018 RMK A01 T00321067  RH  049%=      5-min Rain = 0
KGU1 160523Z 23004KT 03/M07 A3018 RMK A01 T00321068  RH  048%=      5-min Rain = 0
KGU1 160524Z 25005KT 03/M07 A3018 RMK A01 T00331069  RH  048%=      5-min Rain = 0
KGU1 160525Z 21005KT 03/M07 A3018 RMK A01 T00331069  RH  048%=      5-min Rain = 0
KGU1 160526Z 24005KT 03/M07 A3017 RMK A01 T00341070  RH  047%=      5-min Rain = 0
KGU1 160527Z 27003KT 03/M07 A3018 RMK A01 T00331068  RH  048%=      5-min Rain = 0
KGU1 160528Z 25002KT 03/M07 A3017 RMK A01 T00301066  RH  050%=      5-min Rain = 0
KGU1 160529Z 22003KT 03/M07 A3017 RMK A01 T00281065  RH  051%=      5-min Rain = 0
KGU1 160530Z 22006KT 03/M07 A3017 RMK A01 T00271067  RH  050%=      5-min Rain = 0
KGU1 160531Z 23005KT 03/M07 A3017 RMK A01 T00281068  RH  050%=      5-min Rain = 0
KGU1 160532Z 25003KT 03/M07 A3017 RMK A01 T00281067  RH  050%=      5-min Rain = 0
KGU1 160533Z 27003KT 03/M07 A3017 RMK A01 T00261066  RH  051%=      5-min Rain = 0
KGU1 160534Z 26002KT 03/M07 A3017 RMK A01 T00251066  RH  052%=      5-min Rain = 0
KGU1 160535Z 28002KT 02/M07 A3017 RMK A01 T00241066  RH  052%=      5-min Rain = 0
KGU1 160536Z 31004KT 02/M07 A3017 RMK A01 T00231065  RH  053%=      5-min Rain = 0
KGU1 160537Z 29004KT 02/M06 A3017 RMK A01 T00211063  RH  054%=      5-min Rain = 0
KGU1 160538Z 28003KT 02/M07 A3017 RMK A01 T00201065  RH  054%=      5-min Rain = 0
KGU1 160539Z 25002KT 02/M07 A3017 RMK A01 T00201065  RH  054%=      5-min Rain = 0
KGU1 160540Z 25005KT 02/M07 A3017 RMK A01 T00201067  RH  053%=      5-min Rain = 0
KGU1 160541Z 22006KT 02/M07 A3017 RMK A01 T00231069  RH  051%=      5-min Rain = 0
KGU1 160542Z 21009KT 03/M07 A3017 RMK A01 T00261069  RH  050%=      5-min Rain = 0
KGU1 160543Z 21008KT 03/M07 A3017 RMK A01 T00291069  RH  049%=      5-min Rain = 0
KGU1 160544Z 21006KT 03/M07 A3017 RMK A01 T00301068  RH  049%=      5-min Rain = 0
KGU1 160545Z 22006KT 03/M07 A3017 RMK A01 T00311069  RH  049%=      5-min Rain = 0
KGU1 160546Z 22004KT 03/M07 A3017 RMK A01 T00311069  RH  048%=      5-min Rain = 0
KGU1 160547Z 21007KT 03/M07 A3017 RMK A01 T00311069  RH  048%=      5-min Rain = 0
KGU1 160548Z 23005KT 03/M07 A3017 RMK A01 T00311068  RH  048%=      5-min Rain = 0
KGU1 160549Z 22006KT 03/M07 A3017 RMK A01 T00311068  RH  049%=      5-min Rain = 0
KGU1 160550Z 22004KT 03/M07 A3017 RMK A01 T00311070  RH  048%=      5-min Rain = 0
KGU1 160551Z 24004KT 03/M07 A3017 RMK A01 T00311070  RH  048%=      5-min Rain = 0
KGU1 160552Z 28004KT 03/M07 A3017 RMK A01 T00301068  RH  049%=      5-min Rain = 0
KGU1 160553Z 25004KT 03/M07 A3017 RMK A01 T00281068  RH  050%=      5-min Rain = 0
KGU1 160554Z 23005KT 03/M07 A3017 RMK A01 T00281071  RH  049%=      5-min Rain = 0
KGU1 160555Z 23004KT 03/M07 A3017 RMK A01 T00291071  RH  048%=      5-min Rain = 0
KGU1 160556Z 26004KT 03/M07 A3017 RMK A01 T00301070  RH  048%=      5-min Rain = 0
KGU1 160557Z 27003KT 03/M07 A3017 RMK A01 T00301068  RH  049%=      5-min Rain = 0
KGU1 160558Z 30003KT 03/M07 A3017 RMK A01 T00291069  RH  049%=      5-min Rain = 0
KGU1 160559Z 29004KT 03/M07 A3017 RMK A01 T00281068  RH  050%=      5-min Rain = 0

Page generated in 0.1038 seconds.